<?xml version="1.0" encoding="UTF-8" standalone="no" ?><gpx xmlns="http://www.topografix.com/GPX/1/1" xmlns:gpxx="http://www.garmin.com/xmlschemas/GpxExtensions/v3" xmlns:gpxtpx="http://www.garmin.com/xmlschemas/TrackPointExtension/v1" creator="Foretrex 301" version="1.1" xmlns:xsi="http://www.w3.org/2001/XMLSchema-instance" xsi:schemaLocation="http://www.topografix.com/GPX/1/1 http://www.topografix.com/GPX/1/1/gpx.xsd http://www.garmin.com/xmlschemas/GpxExtensions/v3 http://www.garmin.com/xmlschemas/GpxExtensions/v3/GpxExtensionsv3.xsd"><metadata><link href="http://www.garmin.com"><text>Garmin International</text></link><time>2011-10-21T16:48:54Z</time></metadata><trk><name>ACTIVE LOG: 19 OCT 2011 08:57</name><trkseg><trkpt lat="51.944806" lon="-2.038188"><ele>87.62</ele><time>2011-10-19T08:57:45Z</time></trkpt><trkpt lat="51.944823" lon="-2.038163"><ele>89.06</ele><time>2011-10-19T08:58:34Z</time></trkpt><trkpt lat="51.944823" lon="-2.038153"><ele>90.02</ele><time>2011-10-19T08:58:55Z</time></trkpt><trkpt lat="51.944870" lon="-2.038165"><ele>89.54</ele><time>2011-10-19T08:59:36Z</time></trkpt><trkpt lat="51.944906" lon="-2.038216"><ele>90.02</ele><time>2011-10-19T08:59:41Z</time></trkpt><trkpt lat="51.944958" lon="-2.038294"><ele>92.42</ele><time>2011-10-19T08:59:49Z</time></trkpt><trkpt lat="51.944970" lon="-2.038307"><ele>94.35</ele><time>2011-10-19T08:59:58Z</time></trkpt><trkpt lat="51.945005" lon="-2.038322"><ele>93.39</ele><time>2011-10-19T09:00:05Z</time></trkpt><trkpt lat="51.945111" lon="-2.038203"><ele>94.35</ele><time>2011-10-19T09:00:17Z</time></trkpt><trkpt lat="51.945194" lon="-2.038117"><ele>95.79</ele><time>2011-10-19T09:00:26Z</time></trkpt><trkpt lat="51.945296" lon="-2.038024"><ele>97.23</ele><time>2011-10-19T09:00:39Z</time></trkpt><trkpt lat="51.945354" lon="-2.037959"><ele>98.67</ele><time>2011-10-19T09:00:50Z</time></trkpt><trkpt lat="51.945439" lon="-2.037855"><ele>99.63</ele><time>2011-10-19T09:01:02Z</time></trkpt><trkpt lat="51.945524" lon="-2.037790"><ele>101.08</ele><time>2011-10-19T09:01:15Z</time></trkpt><trkpt lat="51.945600" lon="-2.037696"><ele>102.52</ele><time>2011-10-19T09:01:30Z</time></trkpt><trkpt lat="51.945699" lon="-2.037588"><ele>103.00</ele><time>2011-10-19T09:01:45Z</time></trkpt><trkpt lat="51.945769" lon="-2.037501"><ele>105.40</ele><time>2011-10-19T09:01:58Z</time></trkpt><trkpt lat="51.945850" lon="-2.037378"><ele>107.32</ele><time>2011-10-19T09:02:12Z</time></trkpt><trkpt lat="51.945878" lon="-2.037339"><ele>107.81</ele><time>2011-10-19T09:02:20Z</time></trkpt><trkpt lat="51.945879" lon="-2.037344"><ele>106.84</ele><time>2011-10-19T09:02:31Z</time></trkpt><trkpt lat="51.945895" lon="-2.037298"><ele>107.32</ele><time>2011-10-19T09:02:43Z</time></trkpt><trkpt lat="51.945942" lon="-2.037146"><ele>106.84</ele><time>2011-10-19T09:02:54Z</time></trkpt><trkpt lat="51.945958" lon="-2.037073"><ele>107.81</ele><time>2011-10-19T09:03:02Z</time></trkpt><trkpt lat="51.945977" lon="-2.037044"><ele>107.81</ele><time>2011-10-19T09:03:35Z</time></trkpt><trkpt lat="51.946028" lon="-2.036987"><ele>107.32</ele><time>2011-10-19T09:03:42Z</time></trkpt><trkpt lat="51.946038" lon="-2.036994"><ele>106.84</ele><time>2011-10-19T09:03:50Z</time></trkpt><trkpt lat="51.946042" lon="-2.037001"><ele>106.84</ele><time>2011-10-19T09:03:57Z</time></trkpt><trkpt lat="51.946097" lon="-2.037006"><ele>109.25</ele><time>2011-10-19T09:04:08Z</time></trkpt><trkpt lat="51.946130" lon="-2.037010"><ele>111.65</ele><time>2011-10-19T09:04:20Z</time></trkpt><trkpt lat="51.946161" lon="-2.037025"><ele>114.53</ele><time>2011-10-19T09:04:32Z</time></trkpt><trkpt lat="51.946216" lon="-2.037018"><ele>115.98</ele><time>2011-10-19T09:04:39Z</time></trkpt><trkpt lat="51.946247" lon="-2.037000"><ele>116.46</ele><time>2011-10-19T09:04:42Z</time></trkpt><trkpt lat="51.946294" lon="-2.036950"><ele>116.46</ele><time>2011-10-19T09:04:48Z</time></trkpt><trkpt lat="51.946300" lon="-2.036943"><ele>115.98</ele><time>2011-10-19T09:04:50Z</time></trkpt><trkpt lat="51.946309" lon="-2.036894"><ele>113.57</ele><time>2011-10-19T09:04:57Z</time></trkpt><trkpt lat="51.946300" lon="-2.036876"><ele>112.61</ele><time>2011-10-19T09:05:08Z</time></trkpt><trkpt lat="51.946306" lon="-2.036846"><ele>112.13</ele><time>2011-10-19T09:05:19Z</time></trkpt><trkpt lat="51.946282" lon="-2.036597"><ele>112.13</ele><time>2011-10-19T09:05:31Z</time></trkpt><trkpt lat="51.946223" lon="-2.036308"><ele>112.13</ele><time>2011-10-19T09:05:47Z</time></trkpt><trkpt lat="51.946202" lon="-2.036152"><ele>110.69</ele><time>2011-10-19T09:05:57Z</time></trkpt><trkpt lat="51.946155" lon="-2.035871"><ele>110.69</ele><time>2011-10-19T09:06:12Z</time></trkpt><trkpt lat="51.946117" lon="-2.035681"><ele>111.17</ele><time>2011-10-19T09:06:23Z</time></trkpt><trkpt lat="51.946067" lon="-2.035384"><ele>113.09</ele><time>2011-10-19T09:06:39Z</time></trkpt><trkpt lat="51.946022" lon="-2.035178"><ele>113.57</ele><time>2011-10-19T09:06:51Z</time></trkpt><trkpt lat="51.946006" lon="-2.035038"><ele>114.05</ele><time>2011-10-19T09:07:00Z</time></trkpt><trkpt lat="51.946010" lon="-2.035001"><ele>114.05</ele><time>2011-10-19T09:07:03Z</time></trkpt><trkpt lat="51.945987" lon="-2.034908"><ele>115.01</ele><time>2011-10-19T09:07:10Z</time></trkpt><trkpt lat="51.945982" lon="-2.034899"><ele>115.50</ele><time>2011-10-19T09:07:12Z</time></trkpt><trkpt lat="51.946017" lon="-2.034811"><ele>116.46</ele><time>2011-10-19T09:07:21Z</time></trkpt><trkpt lat="51.946037" lon="-2.034684"><ele>118.86</ele><time>2011-10-19T09:07:31Z</time></trkpt><trkpt lat="51.946055" lon="-2.034480"><ele>121.26</ele><time>2011-10-19T09:07:46Z</time></trkpt><trkpt lat="51.946057" lon="-2.034411"><ele>121.74</ele><time>2011-10-19T09:07:52Z</time></trkpt><trkpt lat="51.946068" lon="-2.034295"><ele>121.26</ele><time>2011-10-19T09:08:02Z</time></trkpt><trkpt lat="51.946071" lon="-2.034183"><ele>119.82</ele><time>2011-10-19T09:08:11Z</time></trkpt><trkpt lat="51.946105" lon="-2.034018"><ele>120.78</ele><time>2011-10-19T09:08:23Z</time></trkpt><trkpt lat="51.946121" lon="-2.033862"><ele>120.78</ele><time>2011-10-19T09:08:34Z</time></trkpt><trkpt lat="51.946110" lon="-2.033841"><ele>121.74</ele><time>2011-10-19T09:08:50Z</time></trkpt><trkpt lat="51.946109" lon="-2.033782"><ele>121.74</ele><time>2011-10-19T09:09:05Z</time></trkpt><trkpt lat="51.946106" lon="-2.033741"><ele>121.74</ele><time>2011-10-19T09:09:07Z</time></trkpt><trkpt lat="51.946101" lon="-2.033704"><ele>122.22</ele><time>2011-10-19T09:09:09Z</time></trkpt><trkpt lat="51.946071" lon="-2.033545"><ele>122.71</ele><time>2011-10-19T09:09:18Z</time></trkpt><trkpt lat="51.946019" lon="-2.033368"><ele>121.26</ele><time>2011-10-19T09:09:30Z</time></trkpt><trkpt lat="51.945995" lon="-2.033234"><ele>120.30</ele><time>2011-10-19T09:09:39Z</time></trkpt><trkpt lat="51.945976" lon="-2.033176"><ele>119.82</ele><time>2011-10-19T09:09:46Z</time></trkpt><trkpt lat="51.945960" lon="-2.033139"><ele>120.30</ele><time>2011-10-19T09:09:49Z</time></trkpt><trkpt lat="51.945876" lon="-2.032990"><ele>118.38</ele><time>2011-10-19T09:09:59Z</time></trkpt><trkpt lat="51.945806" lon="-2.032844"><ele>117.90</ele><time>2011-10-19T09:10:10Z</time></trkpt><trkpt lat="51.945767" lon="-2.032739"><ele>119.82</ele><time>2011-10-19T09:10:19Z</time></trkpt><trkpt lat="51.945737" lon="-2.032687"><ele>119.34</ele><time>2011-10-19T09:10:24Z</time></trkpt><trkpt lat="51.945710" lon="-2.032640"><ele>118.38</ele><time>2011-10-19T09:10:32Z</time></trkpt><trkpt lat="51.945668" lon="-2.032554"><ele>116.94</ele><time>2011-10-19T09:10:41Z</time></trkpt><trkpt lat="51.945658" lon="-2.032564"><ele>116.46</ele><time>2011-10-19T09:10:47Z</time></trkpt><trkpt lat="51.945623" lon="-2.032560"><ele>119.34</ele><time>2011-10-19T09:11:34Z</time></trkpt><trkpt lat="51.945481" lon="-2.032559"><ele>118.86</ele><time>2011-10-19T09:11:44Z</time></trkpt><trkpt lat="51.945415" lon="-2.032577"><ele>115.98</ele><time>2011-10-19T09:11:50Z</time></trkpt><trkpt lat="51.945342" lon="-2.032599"><ele>113.57</ele><time>2011-10-19T09:11:56Z</time></trkpt><trkpt lat="51.945282" lon="-2.032584"><ele>113.09</ele><time>2011-10-19T09:12:04Z</time></trkpt><trkpt lat="51.945223" lon="-2.032580"><ele>113.09</ele><time>2011-10-19T09:12:11Z</time></trkpt><trkpt lat="51.945146" lon="-2.032572"><ele>113.57</ele><time>2011-10-19T09:12:19Z</time></trkpt><trkpt lat="51.945090" lon="-2.032570"><ele>114.05</ele><time>2011-10-19T09:12:27Z</time></trkpt><trkpt lat="51.944992" lon="-2.032570"><ele>112.13</ele><time>2011-10-19T09:12:37Z</time></trkpt><trkpt lat="51.944918" lon="-2.032560"><ele>110.21</ele><time>2011-10-19T09:12:44Z</time></trkpt><trkpt lat="51.944883" lon="-2.032586"><ele>110.69</ele><time>2011-10-19T09:13:16Z</time></trkpt><trkpt lat="51.944841" lon="-2.032634"><ele>115.98</ele><time>2011-10-19T09:13:41Z</time></trkpt><trkpt lat="51.944805" lon="-2.032605"><ele>119.34</ele><time>2011-10-19T09:13:50Z</time></trkpt><trkpt lat="51.944776" lon="-2.032550"><ele>119.34</ele><time>2011-10-19T09:13:56Z</time></trkpt><trkpt lat="51.944669" lon="-2.032483"><ele>118.86</ele><time>2011-10-19T09:14:07Z</time></trkpt><trkpt lat="51.944682" lon="-2.032476"><ele>113.57</ele><time>2011-10-19T09:14:15Z</time></trkpt><trkpt lat="51.944699" lon="-2.032489"><ele>110.69</ele><time>2011-10-19T09:14:27Z</time></trkpt><trkpt lat="51.944704" lon="-2.032498"><ele>110.21</ele><time>2011-10-19T09:14:32Z</time></trkpt><trkpt lat="51.944741" lon="-2.032379"><ele>113.57</ele><time>2011-10-19T09:14:41Z</time></trkpt><trkpt lat="51.944771" lon="-2.032194"><ele>114.53</ele><time>2011-10-19T09:14:51Z</time></trkpt><trkpt lat="51.944806" lon="-2.032025"><ele>116.46</ele><time>2011-10-19T09:15:02Z</time></trkpt><trkpt lat="51.944811" lon="-2.031990"><ele>117.42</ele><time>2011-10-19T09:15:04Z</time></trkpt><trkpt lat="51.944832" lon="-2.031828"><ele>115.50</ele><time>2011-10-19T09:15:16Z</time></trkpt><trkpt lat="51.944829" lon="-2.031795"><ele>115.50</ele><time>2011-10-19T09:15:29Z</time></trkpt><trkpt lat="51.944840" lon="-2.031657"><ele>115.01</ele><time>2011-10-19T09:15:39Z</time></trkpt><trkpt lat="51.944846" lon="-2.031583"><ele>114.53</ele><time>2011-10-19T09:15:47Z</time></trkpt><trkpt lat="51.944873" lon="-2.031438"><ele>115.98</ele><time>2011-10-19T09:15:58Z</time></trkpt><trkpt lat="51.944887" lon="-2.031297"><ele>118.38</ele><time>2011-10-19T09:16:08Z</time></trkpt><trkpt lat="51.944908" lon="-2.031112"><ele>122.71</ele><time>2011-10-19T09:16:19Z</time></trkpt><trkpt lat="51.944909" lon="-2.031095"><ele>123.19</ele><time>2011-10-19T09:16:20Z</time></trkpt><trkpt lat="51.944914" lon="-2.030983"><ele>125.11</ele><time>2011-10-19T09:16:27Z</time></trkpt><trkpt lat="51.944891" lon="-2.030952"><ele>125.59</ele><time>2011-10-19T09:16:33Z</time></trkpt><trkpt lat="51.944850" lon="-2.030923"><ele>126.55</ele><time>2011-10-19T09:16:41Z</time></trkpt><trkpt lat="51.944841" lon="-2.030713"><ele>127.03</ele><time>2011-10-19T09:16:52Z</time></trkpt><trkpt lat="51.944843" lon="-2.030545"><ele>126.55</ele><time>2011-10-19T09:17:02Z</time></trkpt><trkpt lat="51.944846" lon="-2.030396"><ele>126.07</ele><time>2011-10-19T09:17:11Z</time></trkpt><trkpt lat="51.944843" lon="-2.030252"><ele>123.67</ele><time>2011-10-19T09:17:20Z</time></trkpt><trkpt lat="51.944840" lon="-2.030213"><ele>124.63</ele><time>2011-10-19T09:17:30Z</time></trkpt><trkpt lat="51.944835" lon="-2.030140"><ele>123.19</ele><time>2011-10-19T09:17:47Z</time></trkpt><trkpt lat="51.944899" lon="-2.030029"><ele>124.63</ele><time>2011-10-19T09:17:57Z</time></trkpt><trkpt lat="51.945002" lon="-2.029941"><ele>127.03</ele><time>2011-10-19T09:18:09Z</time></trkpt><trkpt lat="51.945072" lon="-2.029906"><ele>129.43</ele><time>2011-10-19T09:18:16Z</time></trkpt><trkpt lat="51.945150" lon="-2.029822"><ele>132.32</ele><time>2011-10-19T09:18:26Z</time></trkpt><trkpt lat="51.945233" lon="-2.029734"><ele>134.72</ele><time>2011-10-19T09:18:36Z</time></trkpt><trkpt lat="51.945288" lon="-2.029681"><ele>135.68</ele><time>2011-10-19T09:18:43Z</time></trkpt><trkpt lat="51.945351" lon="-2.029665"><ele>138.09</ele><time>2011-10-19T09:18:51Z</time></trkpt><trkpt lat="51.945390" lon="-2.029721"><ele>139.05</ele><time>2011-10-19T09:19:00Z</time></trkpt><trkpt lat="51.945408" lon="-2.029783"><ele>140.01</ele><time>2011-10-19T09:19:08Z</time></trkpt><trkpt lat="51.945445" lon="-2.029856"><ele>141.45</ele><time>2011-10-19T09:19:14Z</time></trkpt><trkpt lat="51.945500" lon="-2.029945"><ele>143.37</ele><time>2011-10-19T09:19:23Z</time></trkpt><trkpt lat="51.945586" lon="-2.030036"><ele>144.34</ele><time>2011-10-19T09:19:34Z</time></trkpt><trkpt lat="51.945625" lon="-2.030074"><ele>144.34</ele><time>2011-10-19T09:19:42Z</time></trkpt><trkpt lat="51.945622" lon="-2.030066"><ele>144.82</ele><time>2011-10-19T09:19:51Z</time></trkpt><trkpt lat="51.945621" lon="-2.030074"><ele>145.30</ele><time>2011-10-19T09:20:01Z</time></trkpt><trkpt lat="51.945638" lon="-2.030085"><ele>144.34</ele><time>2011-10-19T09:20:10Z</time></trkpt><trkpt lat="51.945701" lon="-2.030127"><ele>141.45</ele><time>2011-10-19T09:20:21Z</time></trkpt><trkpt lat="51.945708" lon="-2.030160"><ele>139.53</ele><time>2011-10-19T09:20:33Z</time></trkpt><trkpt lat="51.945757" lon="-2.030286"><ele>139.05</ele><time>2011-10-19T09:20:42Z</time></trkpt><trkpt lat="51.945767" lon="-2.030349"><ele>139.53</ele><time>2011-10-19T09:20:53Z</time></trkpt><trkpt lat="51.945776" lon="-2.030477"><ele>139.05</ele><time>2011-10-19T09:21:00Z</time></trkpt><trkpt lat="51.945768" lon="-2.030553"><ele>139.05</ele><time>2011-10-19T09:21:07Z</time></trkpt><trkpt lat="51.945777" lon="-2.030706"><ele>139.53</ele><time>2011-10-19T09:21:20Z</time></trkpt><trkpt lat="51.945804" lon="-2.030770"><ele>140.49</ele><time>2011-10-19T09:21:28Z</time></trkpt><trkpt lat="51.945812" lon="-2.030786"><ele>140.49</ele><time>2011-10-19T09:21:30Z</time></trkpt><trkpt lat="51.945832" lon="-2.030842"><ele>141.45</ele><time>2011-10-19T09:21:34Z</time></trkpt><trkpt lat="51.945853" lon="-2.031028"><ele>143.37</ele><time>2011-10-19T09:21:44Z</time></trkpt><trkpt lat="51.945862" lon="-2.031075"><ele>142.41</ele><time>2011-10-19T09:21:47Z</time></trkpt><trkpt lat="51.945876" lon="-2.031221"><ele>142.41</ele><time>2011-10-19T09:21:56Z</time></trkpt><trkpt lat="51.945917" lon="-2.031410"><ele>141.45</ele><time>2011-10-19T09:22:08Z</time></trkpt><trkpt lat="51.945924" lon="-2.031465"><ele>140.97</ele><time>2011-10-19T09:22:16Z</time></trkpt><trkpt lat="51.945908" lon="-2.031494"><ele>143.37</ele><time>2011-10-19T09:22:27Z</time></trkpt><trkpt lat="51.945895" lon="-2.031536"><ele>145.78</ele><time>2011-10-19T09:22:37Z</time></trkpt><trkpt lat="51.945905" lon="-2.031593"><ele>148.18</ele><time>2011-10-19T09:22:47Z</time></trkpt><trkpt lat="51.945938" lon="-2.031745"><ele>150.10</ele><time>2011-10-19T09:22:59Z</time></trkpt><trkpt lat="51.945988" lon="-2.031929"><ele>151.54</ele><time>2011-10-19T09:23:13Z</time></trkpt><trkpt lat="51.946034" lon="-2.032024"><ele>151.54</ele><time>2011-10-19T09:23:23Z</time></trkpt><trkpt lat="51.946077" lon="-2.032054"><ele>149.62</ele><time>2011-10-19T09:24:00Z</time></trkpt><trkpt lat="51.946167" lon="-2.032258"><ele>145.30</ele><time>2011-10-19T09:24:11Z</time></trkpt><trkpt lat="51.946230" lon="-2.032434"><ele>142.89</ele><time>2011-10-19T09:24:22Z</time></trkpt><trkpt lat="51.946268" lon="-2.032586"><ele>140.97</ele><time>2011-10-19T09:24:30Z</time></trkpt><trkpt lat="51.946279" lon="-2.032710"><ele>140.01</ele><time>2011-10-19T09:24:37Z</time></trkpt><trkpt lat="51.946324" lon="-2.032915"><ele>141.93</ele><time>2011-10-19T09:24:51Z</time></trkpt><trkpt lat="51.946395" lon="-2.033134"><ele>143.85</ele><time>2011-10-19T09:25:06Z</time></trkpt><trkpt lat="51.946402" lon="-2.033296"><ele>147.22</ele><time>2011-10-19T09:25:15Z</time></trkpt><trkpt lat="51.946407" lon="-2.033346"><ele>147.70</ele><time>2011-10-19T09:25:18Z</time></trkpt><trkpt lat="51.946435" lon="-2.033417"><ele>148.18</ele><time>2011-10-19T09:25:26Z</time></trkpt><trkpt lat="51.946451" lon="-2.033450"><ele>149.62</ele><time>2011-10-19T09:25:34Z</time></trkpt><trkpt lat="51.946517" lon="-2.033612"><ele>152.03</ele><time>2011-10-19T09:25:45Z</time></trkpt><trkpt lat="51.946504" lon="-2.033690"><ele>151.54</ele><time>2011-10-19T09:25:50Z</time></trkpt><trkpt lat="51.946537" lon="-2.033862"><ele>152.03</ele><time>2011-10-19T09:26:01Z</time></trkpt><trkpt lat="51.946608" lon="-2.033993"><ele>153.95</ele><time>2011-10-19T09:26:12Z</time></trkpt><trkpt lat="51.946694" lon="-2.034137"><ele>154.91</ele><time>2011-10-19T09:26:25Z</time></trkpt><trkpt lat="51.946764" lon="-2.034254"><ele>155.39</ele><time>2011-10-19T09:26:36Z</time></trkpt><trkpt lat="51.946813" lon="-2.034268"><ele>152.51</ele><time>2011-10-19T09:26:44Z</time></trkpt><trkpt lat="51.946875" lon="-2.034330"><ele>149.14</ele><time>2011-10-19T09:26:51Z</time></trkpt><trkpt lat="51.946939" lon="-2.034359"><ele>147.22</ele><time>2011-10-19T09:26:57Z</time></trkpt><trkpt lat="51.946972" lon="-2.034423"><ele>142.89</ele><time>2011-10-19T09:27:09Z</time></trkpt><trkpt lat="51.947010" lon="-2.034541"><ele>140.01</ele><time>2011-10-19T09:27:19Z</time></trkpt><trkpt lat="51.947024" lon="-2.034590"><ele>139.05</ele><time>2011-10-19T09:27:22Z</time></trkpt><trkpt lat="51.947064" lon="-2.034719"><ele>138.09</ele><time>2011-10-19T09:27:31Z</time></trkpt><trkpt lat="51.947097" lon="-2.034794"><ele>136.64</ele><time>2011-10-19T09:27:39Z</time></trkpt><trkpt lat="51.947098" lon="-2.034877"><ele>132.32</ele><time>2011-10-19T09:27:49Z</time></trkpt><trkpt lat="51.947090" lon="-2.034901"><ele>133.28</ele><time>2011-10-19T09:27:56Z</time></trkpt><trkpt lat="51.947087" lon="-2.034892"><ele>132.80</ele><time>2011-10-19T09:28:00Z</time></trkpt><trkpt lat="51.947093" lon="-2.035015"><ele>133.28</ele><time>2011-10-19T09:28:09Z</time></trkpt><trkpt lat="51.947105" lon="-2.035169"><ele>132.80</ele><time>2011-10-19T09:28:17Z</time></trkpt><trkpt lat="51.947111" lon="-2.035185"><ele>132.32</ele><time>2011-10-19T09:28:21Z</time></trkpt><trkpt lat="51.947191" lon="-2.035283"><ele>127.51</ele><time>2011-10-19T09:28:31Z</time></trkpt><trkpt lat="51.947251" lon="-2.035412"><ele>126.07</ele><time>2011-10-19T09:28:41Z</time></trkpt><trkpt lat="51.947279" lon="-2.035466"><ele>127.51</ele><time>2011-10-19T09:28:47Z</time></trkpt><trkpt lat="51.947286" lon="-2.035458"><ele>127.51</ele><time>2011-10-19T09:28:54Z</time></trkpt><trkpt lat="51.947300" lon="-2.035556"><ele>127.51</ele><time>2011-10-19T09:29:01Z</time></trkpt><trkpt lat="51.947310" lon="-2.035647"><ele>128.95</ele><time>2011-10-19T09:29:09Z</time></trkpt><trkpt lat="51.947313" lon="-2.035637"><ele>127.99</ele><time>2011-10-19T09:29:25Z</time></trkpt><trkpt lat="51.947321" lon="-2.035655"><ele>127.51</ele><time>2011-10-19T09:29:35Z</time></trkpt><trkpt lat="51.947339" lon="-2.035733"><ele>127.03</ele><time>2011-10-19T09:29:50Z</time></trkpt><trkpt lat="51.947385" lon="-2.035881"><ele>125.11</ele><time>2011-10-19T09:29:59Z</time></trkpt><trkpt lat="51.947427" lon="-2.036027"><ele>124.63</ele><time>2011-10-19T09:30:07Z</time></trkpt><trkpt lat="51.947462" lon="-2.036148"><ele>123.19</ele><time>2011-10-19T09:30:14Z</time></trkpt><trkpt lat="51.947501" lon="-2.036296"><ele>122.22</ele><time>2011-10-19T09:30:23Z</time></trkpt><trkpt lat="51.947539" lon="-2.036419"><ele>121.26</ele><time>2011-10-19T09:30:30Z</time></trkpt><trkpt lat="51.947574" lon="-2.036487"><ele>121.74</ele><time>2011-10-19T09:30:37Z</time></trkpt><trkpt lat="51.947588" lon="-2.036518"><ele>121.26</ele><time>2011-10-19T09:30:44Z</time></trkpt><trkpt lat="51.947608" lon="-2.036609"><ele>121.74</ele><time>2011-10-19T09:30:51Z</time></trkpt><trkpt lat="51.947604" lon="-2.036647"><ele>121.26</ele><time>2011-10-19T09:30:53Z</time></trkpt><trkpt lat="51.947645" lon="-2.036757"><ele>121.74</ele><time>2011-10-19T09:31:00Z</time></trkpt><trkpt lat="51.947713" lon="-2.036904"><ele>123.19</ele><time>2011-10-19T09:31:10Z</time></trkpt><trkpt lat="51.947776" lon="-2.036925"><ele>122.22</ele><time>2011-10-19T09:31:19Z</time></trkpt><trkpt lat="51.947810" lon="-2.036935"><ele>121.74</ele><time>2011-10-19T09:31:31Z</time></trkpt><trkpt lat="51.947815" lon="-2.036942"><ele>121.26</ele><time>2011-10-19T09:31:49Z</time></trkpt><trkpt lat="51.947813" lon="-2.036948"><ele>121.26</ele><time>2011-10-19T09:32:02Z</time></trkpt><trkpt lat="51.947792" lon="-2.037001"><ele>119.82</ele><time>2011-10-19T09:32:06Z</time></trkpt><trkpt lat="51.947718" lon="-2.037165"><ele>118.38</ele><time>2011-10-19T09:32:16Z</time></trkpt><trkpt lat="51.947630" lon="-2.037365"><ele>116.46</ele><time>2011-10-19T09:32:29Z</time></trkpt><trkpt lat="51.947578" lon="-2.037536"><ele>112.61</ele><time>2011-10-19T09:32:41Z</time></trkpt><trkpt lat="51.947559" lon="-2.037571"><ele>111.65</ele><time>2011-10-19T09:32:51Z</time></trkpt><trkpt lat="51.947562" lon="-2.037589"><ele>110.69</ele><time>2011-10-19T09:33:23Z</time></trkpt><trkpt lat="51.947544" lon="-2.037604"><ele>111.17</ele><time>2011-10-19T09:33:39Z</time></trkpt><trkpt lat="51.947538" lon="-2.037634"><ele>111.17</ele><time>2011-10-19T09:33:52Z</time></trkpt><trkpt lat="51.947560" lon="-2.037671"><ele>110.69</ele><time>2011-10-19T09:33:59Z</time></trkpt><trkpt lat="51.947606" lon="-2.037795"><ele>111.17</ele><time>2011-10-19T09:34:06Z</time></trkpt><trkpt lat="51.947635" lon="-2.037888"><ele>112.13</ele><time>2011-10-19T09:34:16Z</time></trkpt><trkpt lat="51.947636" lon="-2.037956"><ele>112.61</ele><time>2011-10-19T09:34:32Z</time></trkpt><trkpt lat="51.947734" lon="-2.038045"><ele>111.65</ele><time>2011-10-19T09:34:41Z</time></trkpt><trkpt lat="51.947768" lon="-2.038089"><ele>111.65</ele><time>2011-10-19T09:34:45Z</time></trkpt><trkpt lat="51.947832" lon="-2.038144"><ele>111.17</ele><time>2011-10-19T09:34:50Z</time></trkpt><trkpt lat="51.947912" lon="-2.038252"><ele>111.17</ele><time>2011-10-19T09:35:00Z</time></trkpt><trkpt lat="51.947979" lon="-2.038366"><ele>111.65</ele><time>2011-10-19T09:35:10Z</time></trkpt><trkpt lat="51.948004" lon="-2.038403"><ele>111.65</ele><time>2011-10-19T09:35:20Z</time></trkpt><trkpt lat="51.948037" lon="-2.038464"><ele>110.69</ele><time>2011-10-19T09:35:29Z</time></trkpt><trkpt lat="51.948139" lon="-2.038637"><ele>110.69</ele><time>2011-10-19T09:35:41Z</time></trkpt><trkpt lat="51.948234" lon="-2.038767"><ele>111.17</ele><time>2011-10-19T09:35:52Z</time></trkpt><trkpt lat="51.948342" lon="-2.038910"><ele>109.25</ele><time>2011-10-19T09:36:04Z</time></trkpt><trkpt lat="51.948379" lon="-2.038964"><ele>108.29</ele><time>2011-10-19T09:36:11Z</time></trkpt><trkpt lat="51.948483" lon="-2.039089"><ele>108.29</ele><time>2011-10-19T09:36:22Z</time></trkpt><trkpt lat="51.948563" lon="-2.039163"><ele>107.81</ele><time>2011-10-19T09:36:30Z</time></trkpt><trkpt lat="51.948700" lon="-2.039210"><ele>106.84</ele><time>2011-10-19T09:36:41Z</time></trkpt><trkpt lat="51.948803" lon="-2.039296"><ele>106.84</ele><time>2011-10-19T09:36:51Z</time></trkpt><trkpt lat="51.948860" lon="-2.039371"><ele>107.81</ele><time>2011-10-19T09:37:00Z</time></trkpt><trkpt lat="51.948867" lon="-2.039370"><ele>107.32</ele><time>2011-10-19T09:37:04Z</time></trkpt><trkpt lat="51.948889" lon="-2.039435"><ele>107.81</ele><time>2011-10-19T09:37:12Z</time></trkpt><trkpt lat="51.948891" lon="-2.039440"><ele>107.32</ele><time>2011-10-19T09:37:13Z</time></trkpt><trkpt lat="51.948911" lon="-2.039517"><ele>107.81</ele><time>2011-10-19T09:37:22Z</time></trkpt><trkpt lat="51.948913" lon="-2.039541"><ele>107.32</ele><time>2011-10-19T09:37:41Z</time></trkpt><trkpt lat="51.948921" lon="-2.039554"><ele>106.36</ele><time>2011-10-19T09:37:55Z</time></trkpt><trkpt lat="51.948934" lon="-2.039598"><ele>105.40</ele><time>2011-10-19T09:38:03Z</time></trkpt><trkpt lat="51.948950" lon="-2.039612"><ele>103.00</ele><time>2011-10-19T09:38:17Z</time></trkpt><trkpt lat="51.948960" lon="-2.039633"><ele>102.52</ele><time>2011-10-19T09:38:30Z</time></trkpt><trkpt lat="51.948959" lon="-2.039658"><ele>103.96</ele><time>2011-10-19T09:38:35Z</time></trkpt><trkpt lat="51.948987" lon="-2.039696"><ele>103.96</ele><time>2011-10-19T09:38:44Z</time></trkpt><trkpt lat="51.949010" lon="-2.039714"><ele>103.00</ele><time>2011-10-19T09:38:54Z</time></trkpt><trkpt lat="51.949042" lon="-2.039766"><ele>103.48</ele><time>2011-10-19T09:39:02Z</time></trkpt><trkpt lat="51.949076" lon="-2.039855"><ele>103.48</ele><time>2011-10-19T09:39:12Z</time></trkpt><trkpt lat="51.949096" lon="-2.039874"><ele>103.48</ele><time>2011-10-19T09:39:17Z</time></trkpt><trkpt lat="51.949192" lon="-2.039915"><ele>103.96</ele><time>2011-10-19T09:39:28Z</time></trkpt><trkpt lat="51.949192" lon="-2.039955"><ele>105.88</ele><time>2011-10-19T09:39:45Z</time></trkpt><trkpt lat="51.949233" lon="-2.039983"><ele>105.88</ele><time>2011-10-19T09:39:59Z</time></trkpt><trkpt lat="51.949359" lon="-2.040039"><ele>105.88</ele><time>2011-10-19T09:40:09Z</time></trkpt><trkpt lat="51.949476" lon="-2.040075"><ele>105.40</ele><time>2011-10-19T09:40:19Z</time></trkpt><trkpt lat="51.949481" lon="-2.040058"><ele>105.88</ele><time>2011-10-19T09:40:45Z</time></trkpt><trkpt lat="51.949484" lon="-2.040058"><ele>105.40</ele><time>2011-10-19T09:41:09Z</time></trkpt><trkpt lat="51.949530" lon="-2.040060"><ele>107.32</ele><time>2011-10-19T09:41:50Z</time></trkpt><trkpt lat="51.949561" lon="-2.040047"><ele>106.84</ele><time>2011-10-19T09:41:59Z</time></trkpt><trkpt lat="51.949639" lon="-2.040117"><ele>107.32</ele><time>2011-10-19T09:42:07Z</time></trkpt><trkpt lat="51.949738" lon="-2.040190"><ele>108.29</ele><time>2011-10-19T09:42:17Z</time></trkpt><trkpt lat="51.949824" lon="-2.040238"><ele>109.25</ele><time>2011-10-19T09:42:26Z</time></trkpt><trkpt lat="51.949847" lon="-2.040293"><ele>108.77</ele><time>2011-10-19T09:42:50Z</time></trkpt><trkpt lat="51.949919" lon="-2.040309"><ele>108.77</ele><time>2011-10-19T09:42:59Z</time></trkpt><trkpt lat="51.950033" lon="-2.040379"><ele>109.73</ele><time>2011-10-19T09:43:10Z</time></trkpt><trkpt lat="51.950109" lon="-2.040446"><ele>111.17</ele><time>2011-10-19T09:43:19Z</time></trkpt><trkpt lat="51.950101" lon="-2.040446"><ele>110.69</ele><time>2011-10-19T09:43:42Z</time></trkpt><trkpt lat="51.950120" lon="-2.040450"><ele>109.73</ele><time>2011-10-19T09:43:50Z</time></trkpt><trkpt lat="51.950146" lon="-2.040455"><ele>107.81</ele><time>2011-10-19T09:44:03Z</time></trkpt><trkpt lat="51.950179" lon="-2.040477"><ele>105.88</ele><time>2011-10-19T09:44:18Z</time></trkpt><trkpt lat="51.950215" lon="-2.040505"><ele>108.77</ele><time>2011-10-19T09:44:25Z</time></trkpt><trkpt lat="51.950293" lon="-2.040553"><ele>109.73</ele><time>2011-10-19T09:44:33Z</time></trkpt><trkpt lat="51.950365" lon="-2.040623"><ele>110.21</ele><time>2011-10-19T09:44:42Z</time></trkpt><trkpt lat="51.950370" lon="-2.040638"><ele>110.21</ele><time>2011-10-19T09:44:52Z</time></trkpt><trkpt lat="51.950390" lon="-2.040655"><ele>108.77</ele><time>2011-10-19T09:45:07Z</time></trkpt><trkpt lat="51.950467" lon="-2.040703"><ele>109.73</ele><time>2011-10-19T09:45:14Z</time></trkpt><trkpt lat="51.950487" lon="-2.040719"><ele>108.77</ele><time>2011-10-19T09:45:26Z</time></trkpt><trkpt lat="51.950605" lon="-2.040808"><ele>110.21</ele><time>2011-10-19T09:45:37Z</time></trkpt><trkpt lat="51.950647" lon="-2.040845"><ele>109.73</ele><time>2011-10-19T09:45:41Z</time></trkpt><trkpt lat="51.950703" lon="-2.040864"><ele>109.25</ele><time>2011-10-19T09:45:48Z</time></trkpt><trkpt lat="51.950751" lon="-2.040884"><ele>109.73</ele><time>2011-10-19T09:45:54Z</time></trkpt><trkpt lat="51.950828" lon="-2.040924"><ele>110.69</ele><time>2011-10-19T09:46:02Z</time></trkpt><trkpt lat="51.950858" lon="-2.040927"><ele>111.17</ele><time>2011-10-19T09:46:05Z</time></trkpt><trkpt lat="51.950912" lon="-2.040931"><ele>111.65</ele><time>2011-10-19T09:46:10Z</time></trkpt><trkpt lat="51.950991" lon="-2.040963"><ele>112.13</ele><time>2011-10-19T09:46:18Z</time></trkpt><trkpt lat="51.951033" lon="-2.040973"><ele>113.09</ele><time>2011-10-19T09:46:23Z</time></trkpt><trkpt lat="51.951087" lon="-2.041002"><ele>114.05</ele><time>2011-10-19T09:46:30Z</time></trkpt><trkpt lat="51.951157" lon="-2.041046"><ele>115.50</ele><time>2011-10-19T09:46:39Z</time></trkpt><trkpt lat="51.951208" lon="-2.041079"><ele>115.98</ele><time>2011-10-19T09:46:46Z</time></trkpt><trkpt lat="51.951216" lon="-2.041075"><ele>115.50</ele><time>2011-10-19T09:46:56Z</time></trkpt><trkpt lat="51.951293" lon="-2.041154"><ele>115.01</ele><time>2011-10-19T09:47:05Z</time></trkpt><trkpt lat="51.951359" lon="-2.041206"><ele>115.01</ele><time>2011-10-19T09:47:12Z</time></trkpt><trkpt lat="51.951445" lon="-2.041257"><ele>115.50</ele><time>2011-10-19T09:47:21Z</time></trkpt><trkpt lat="51.951490" lon="-2.041270"><ele>115.50</ele><time>2011-10-19T09:47:28Z</time></trkpt><trkpt lat="51.951514" lon="-2.041298"><ele>114.53</ele><time>2011-10-19T09:48:04Z</time></trkpt><trkpt lat="51.951519" lon="-2.041310"><ele>113.09</ele><time>2011-10-19T09:48:23Z</time></trkpt><trkpt lat="51.951560" lon="-2.041363"><ele>113.57</ele><time>2011-10-19T09:48:37Z</time></trkpt><trkpt lat="51.951569" lon="-2.041375"><ele>113.57</ele><time>2011-10-19T09:48:38Z</time></trkpt><trkpt lat="51.951673" lon="-2.041458"><ele>113.57</ele><time>2011-10-19T09:48:48Z</time></trkpt><trkpt lat="51.951776" lon="-2.041568"><ele>113.09</ele><time>2011-10-19T09:48:58Z</time></trkpt><trkpt lat="51.951878" lon="-2.041679"><ele>112.13</ele><time>2011-10-19T09:49:09Z</time></trkpt><trkpt lat="51.951948" lon="-2.041734"><ele>112.13</ele><time>2011-10-19T09:49:17Z</time></trkpt><trkpt lat="51.951958" lon="-2.041723"><ele>111.65</ele><time>2011-10-19T09:49:30Z</time></trkpt><trkpt lat="51.951975" lon="-2.041725"><ele>110.21</ele><time>2011-10-19T09:49:44Z</time></trkpt><trkpt lat="51.952052" lon="-2.041776"><ele>110.21</ele><time>2011-10-19T09:49:52Z</time></trkpt><trkpt lat="51.952104" lon="-2.041822"><ele>109.73</ele><time>2011-10-19T09:50:01Z</time></trkpt><trkpt lat="51.952144" lon="-2.041852"><ele>108.29</ele><time>2011-10-19T09:50:08Z</time></trkpt><trkpt lat="51.952253" lon="-2.041965"><ele>107.32</ele><time>2011-10-19T09:50:19Z</time></trkpt><trkpt lat="51.952287" lon="-2.042000"><ele>107.32</ele><time>2011-10-19T09:50:23Z</time></trkpt><trkpt lat="51.952395" lon="-2.042085"><ele>106.36</ele><time>2011-10-19T09:50:34Z</time></trkpt><trkpt lat="51.952496" lon="-2.042183"><ele>105.88</ele><time>2011-10-19T09:50:44Z</time></trkpt><trkpt lat="51.952591" lon="-2.042270"><ele>105.88</ele><time>2011-10-19T09:50:53Z</time></trkpt><trkpt lat="51.952621" lon="-2.042278"><ele>105.40</ele><time>2011-10-19T09:50:58Z</time></trkpt><trkpt lat="51.952666" lon="-2.042316"><ele>104.44</ele><time>2011-10-19T09:51:06Z</time></trkpt><trkpt lat="51.952735" lon="-2.042392"><ele>103.48</ele><time>2011-10-19T09:51:15Z</time></trkpt><trkpt lat="51.952845" lon="-2.042474"><ele>103.00</ele><time>2011-10-19T09:51:25Z</time></trkpt><trkpt lat="51.952883" lon="-2.042498"><ele>103.48</ele><time>2011-10-19T09:51:28Z</time></trkpt><trkpt lat="51.952978" lon="-2.042544"><ele>103.00</ele><time>2011-10-19T09:51:36Z</time></trkpt><trkpt lat="51.953071" lon="-2.042566"><ele>103.48</ele><time>2011-10-19T09:51:44Z</time></trkpt><trkpt lat="51.953197" lon="-2.042598"><ele>104.44</ele><time>2011-10-19T09:51:55Z</time></trkpt><trkpt lat="51.953293" lon="-2.042637"><ele>104.92</ele><time>2011-10-19T09:52:04Z</time></trkpt><trkpt lat="51.953397" lon="-2.042685"><ele>104.92</ele><time>2011-10-19T09:52:14Z</time></trkpt><trkpt lat="51.953420" lon="-2.042689"><ele>105.40</ele><time>2011-10-19T09:52:16Z</time></trkpt><trkpt lat="51.953502" lon="-2.042721"><ele>104.92</ele><time>2011-10-19T09:52:25Z</time></trkpt><trkpt lat="51.953498" lon="-2.042725"><ele>103.96</ele><time>2011-10-19T09:52:33Z</time></trkpt><trkpt lat="51.953507" lon="-2.042730"><ele>103.96</ele><time>2011-10-19T09:52:42Z</time></trkpt><trkpt lat="51.953527" lon="-2.042700"><ele>104.92</ele><time>2011-10-19T09:52:54Z</time></trkpt><trkpt lat="51.953534" lon="-2.042685"><ele>104.44</ele><time>2011-10-19T09:53:06Z</time></trkpt><trkpt lat="51.953557" lon="-2.042729"><ele>103.48</ele><time>2011-10-19T09:53:34Z</time></trkpt><trkpt lat="51.953570" lon="-2.042750"><ele>103.48</ele><time>2011-10-19T09:53:45Z</time></trkpt><trkpt lat="51.953586" lon="-2.042756"><ele>103.48</ele><time>2011-10-19T09:54:06Z</time></trkpt><trkpt lat="51.953588" lon="-2.042759"><ele>103.48</ele><time>2011-10-19T09:54:07Z</time></trkpt><trkpt lat="51.953605" lon="-2.042862"><ele>102.52</ele><time>2011-10-19T09:54:17Z</time></trkpt><trkpt lat="51.953620" lon="-2.042945"><ele>100.60</ele><time>2011-10-19T09:54:25Z</time></trkpt><trkpt lat="51.953619" lon="-2.042992"><ele>100.60</ele><time>2011-10-19T09:54:35Z</time></trkpt><trkpt lat="51.953631" lon="-2.042992"><ele>97.71</ele><time>2011-10-19T09:55:10Z</time></trkpt><trkpt lat="51.953631" lon="-2.042997"><ele>97.23</ele><time>2011-10-19T09:55:35Z</time></trkpt><trkpt lat="51.953647" lon="-2.043009"><ele>93.39</ele><time>2011-10-19T09:55:55Z</time></trkpt><trkpt lat="51.953653" lon="-2.043012"><ele>91.94</ele><time>2011-10-19T09:56:34Z</time></trkpt><trkpt lat="51.953640" lon="-2.043055"><ele>94.83</ele><time>2011-10-19T09:57:54Z</time></trkpt><trkpt lat="51.953621" lon="-2.043090"><ele>96.75</ele><time>2011-10-19T09:58:05Z</time></trkpt><trkpt lat="51.953624" lon="-2.043087"><ele>96.75</ele><time>2011-10-19T09:58:07Z</time></trkpt><trkpt lat="51.953713" lon="-2.042945"><ele>99.15</ele><time>2011-10-19T09:58:17Z</time></trkpt><trkpt lat="51.953796" lon="-2.042798"><ele>102.52</ele><time>2011-10-19T09:58:25Z</time></trkpt><trkpt lat="51.953822" lon="-2.042744"><ele>103.96</ele><time>2011-10-19T09:58:29Z</time></trkpt><trkpt lat="51.953852" lon="-2.042737"><ele>103.96</ele><time>2011-10-19T09:58:33Z</time></trkpt><trkpt lat="51.954003" lon="-2.042794"><ele>103.00</ele><time>2011-10-19T09:58:45Z</time></trkpt><trkpt lat="51.954134" lon="-2.042817"><ele>103.00</ele><time>2011-10-19T09:58:56Z</time></trkpt><trkpt lat="51.954175" lon="-2.042809"><ele>103.00</ele><time>2011-10-19T09:59:03Z</time></trkpt><trkpt lat="51.954161" lon="-2.042816"><ele>104.44</ele><time>2011-10-19T09:59:11Z</time></trkpt><trkpt lat="51.954165" lon="-2.042815"><ele>105.40</ele><time>2011-10-19T09:59:17Z</time></trkpt><trkpt lat="51.954161" lon="-2.042786"><ele>106.36</ele><time>2011-10-19T09:59:30Z</time></trkpt><trkpt lat="51.954165" lon="-2.042776"><ele>105.88</ele><time>2011-10-19T09:59:46Z</time></trkpt><trkpt lat="51.954158" lon="-2.042785"><ele>105.88</ele><time>2011-10-19T10:00:16Z</time></trkpt><trkpt lat="51.954153" lon="-2.042784"><ele>104.44</ele><time>2011-10-19T10:00:28Z</time></trkpt><trkpt lat="51.954154" lon="-2.042781"><ele>104.92</ele><time>2011-10-19T10:00:42Z</time></trkpt><trkpt lat="51.954137" lon="-2.042779"><ele>104.92</ele><time>2011-10-19T10:01:00Z</time></trkpt><trkpt lat="51.954139" lon="-2.042799"><ele>107.32</ele><time>2011-10-19T10:01:11Z</time></trkpt><trkpt lat="51.954145" lon="-2.042801"><ele>107.32</ele><time>2011-10-19T10:01:16Z</time></trkpt><trkpt lat="51.954135" lon="-2.042772"><ele>106.36</ele><time>2011-10-19T10:01:23Z</time></trkpt><trkpt lat="51.954140" lon="-2.042774"><ele>106.36</ele><time>2011-10-19T10:01:45Z</time></trkpt><trkpt lat="51.954138" lon="-2.042773"><ele>106.36</ele><time>2011-10-19T10:01:55Z</time></trkpt><trkpt lat="51.954140" lon="-2.042773"><ele>106.84</ele><time>2011-10-19T10:02:17Z</time></trkpt><trkpt lat="51.954156" lon="-2.042789"><ele>107.32</ele><time>2011-10-19T10:02:35Z</time></trkpt><trkpt lat="51.954151" lon="-2.042776"><ele>106.84</ele><time>2011-10-19T10:02:52Z</time></trkpt><trkpt lat="51.954149" lon="-2.042772"><ele>106.84</ele><time>2011-10-19T10:03:09Z</time></trkpt><trkpt lat="51.954151" lon="-2.042772"><ele>106.84</ele><time>2011-10-19T10:03:36Z</time></trkpt><trkpt lat="51.954147" lon="-2.042773"><ele>106.84</ele><time>2011-10-19T10:04:11Z</time></trkpt><trkpt lat="51.954145" lon="-2.042771"><ele>106.36</ele><time>2011-10-19T10:05:10Z</time></trkpt><trkpt lat="51.954146" lon="-2.042772"><ele>106.36</ele><time>2011-10-19T10:05:49Z</time></trkpt><trkpt lat="51.954144" lon="-2.042767"><ele>105.88</ele><time>2011-10-19T10:06:12Z</time></trkpt><trkpt lat="51.954146" lon="-2.042769"><ele>105.88</ele><time>2011-10-19T10:06:24Z</time></trkpt><trkpt lat="51.954145" lon="-2.042771"><ele>105.40</ele><time>2011-10-19T10:07:22Z</time></trkpt><trkpt lat="51.954139" lon="-2.042770"><ele>103.96</ele><time>2011-10-19T10:07:46Z</time></trkpt><trkpt lat="51.954132" lon="-2.042756"><ele>102.04</ele><time>2011-10-19T10:08:02Z</time></trkpt><trkpt lat="51.954129" lon="-2.042758"><ele>101.56</ele><time>2011-10-19T10:08:12Z</time></trkpt><trkpt lat="51.954125" lon="-2.042757"><ele>101.08</ele><time>2011-10-19T10:09:10Z</time></trkpt><trkpt lat="51.954135" lon="-2.042758"><ele>101.08</ele><time>2011-10-19T10:09:35Z</time></trkpt><trkpt lat="51.954137" lon="-2.042758"><ele>101.08</ele><time>2011-10-19T10:10:32Z</time></trkpt><trkpt lat="51.954148" lon="-2.042760"><ele>102.52</ele><time>2011-10-19T10:11:00Z</time></trkpt><trkpt lat="51.954139" lon="-2.042759"><ele>103.48</ele><time>2011-10-19T10:11:10Z</time></trkpt><trkpt lat="51.954136" lon="-2.042756"><ele>103.48</ele><time>2011-10-19T10:11:46Z</time></trkpt><trkpt lat="51.954140" lon="-2.042754"><ele>103.48</ele><time>2011-10-19T10:12:00Z</time></trkpt><trkpt lat="51.954141" lon="-2.042760"><ele>103.48</ele><time>2011-10-19T10:12:11Z</time></trkpt><trkpt lat="51.954179" lon="-2.042805"><ele>104.92</ele><time>2011-10-19T10:12:18Z</time></trkpt><trkpt lat="51.954265" lon="-2.042834"><ele>106.36</ele><time>2011-10-19T10:12:28Z</time></trkpt><trkpt lat="51.954344" lon="-2.042857"><ele>107.81</ele><time>2011-10-19T10:12:36Z</time></trkpt><trkpt lat="51.954399" lon="-2.042866"><ele>107.81</ele><time>2011-10-19T10:12:44Z</time></trkpt><trkpt lat="51.954399" lon="-2.042879"><ele>107.81</ele><time>2011-10-19T10:12:57Z</time></trkpt><trkpt lat="51.954404" lon="-2.042883"><ele>107.32</ele><time>2011-10-19T10:13:10Z</time></trkpt><trkpt lat="51.954419" lon="-2.042888"><ele>106.36</ele><time>2011-10-19T10:13:22Z</time></trkpt><trkpt lat="51.954433" lon="-2.042902"><ele>107.32</ele><time>2011-10-19T10:13:33Z</time></trkpt><trkpt lat="51.954452" lon="-2.042900"><ele>105.88</ele><time>2011-10-19T10:13:45Z</time></trkpt><trkpt lat="51.954498" lon="-2.042916"><ele>105.40</ele><time>2011-10-19T10:13:51Z</time></trkpt><trkpt lat="51.954570" lon="-2.042926"><ele>105.88</ele><time>2011-10-19T10:13:59Z</time></trkpt><trkpt lat="51.954653" lon="-2.042988"><ele>107.81</ele><time>2011-10-19T10:14:08Z</time></trkpt><trkpt lat="51.954679" lon="-2.042999"><ele>108.29</ele><time>2011-10-19T10:14:11Z</time></trkpt><trkpt lat="51.954749" lon="-2.043060"><ele>109.25</ele><time>2011-10-19T10:14:19Z</time></trkpt><trkpt lat="51.954839" lon="-2.043093"><ele>108.29</ele><time>2011-10-19T10:14:27Z</time></trkpt><trkpt lat="51.954939" lon="-2.043132"><ele>109.25</ele><time>2011-10-19T10:14:36Z</time></trkpt><trkpt lat="51.954988" lon="-2.043168"><ele>109.73</ele><time>2011-10-19T10:14:41Z</time></trkpt><trkpt lat="51.955084" lon="-2.043198"><ele>109.73</ele><time>2011-10-19T10:14:50Z</time></trkpt><trkpt lat="51.955206" lon="-2.043224"><ele>108.77</ele><time>2011-10-19T10:15:01Z</time></trkpt><trkpt lat="51.955310" lon="-2.043270"><ele>107.81</ele><time>2011-10-19T10:15:11Z</time></trkpt><trkpt lat="51.955374" lon="-2.043300"><ele>107.32</ele><time>2011-10-19T10:15:19Z</time></trkpt><trkpt lat="51.955398" lon="-2.043312"><ele>108.29</ele><time>2011-10-19T10:15:37Z</time></trkpt><trkpt lat="51.955444" lon="-2.043314"><ele>108.29</ele><time>2011-10-19T10:15:43Z</time></trkpt><trkpt lat="51.955487" lon="-2.043319"><ele>107.81</ele><time>2011-10-19T10:15:50Z</time></trkpt><trkpt lat="51.955544" lon="-2.043326"><ele>105.40</ele><time>2011-10-19T10:16:01Z</time></trkpt><trkpt lat="51.955622" lon="-2.043354"><ele>104.44</ele><time>2011-10-19T10:16:13Z</time></trkpt><trkpt lat="51.955659" lon="-2.043371"><ele>104.44</ele><time>2011-10-19T10:16:18Z</time></trkpt><trkpt lat="51.955739" lon="-2.043382"><ele>103.48</ele><time>2011-10-19T10:16:27Z</time></trkpt><trkpt lat="51.955779" lon="-2.043379"><ele>103.96</ele><time>2011-10-19T10:16:34Z</time></trkpt><trkpt lat="51.955897" lon="-2.043392"><ele>102.52</ele><time>2011-10-19T10:16:44Z</time></trkpt><trkpt lat="51.956018" lon="-2.043433"><ele>102.52</ele><time>2011-10-19T10:16:56Z</time></trkpt><trkpt lat="51.956063" lon="-2.043449"><ele>102.04</ele><time>2011-10-19T10:17:02Z</time></trkpt><trkpt lat="51.956207" lon="-2.043481"><ele>102.04</ele><time>2011-10-19T10:17:15Z</time></trkpt><trkpt lat="51.956293" lon="-2.043480"><ele>102.52</ele><time>2011-10-19T10:17:24Z</time></trkpt><trkpt lat="51.956307" lon="-2.043502"><ele>101.08</ele><time>2011-10-19T10:18:22Z</time></trkpt><trkpt lat="51.956333" lon="-2.043527"><ele>101.08</ele><time>2011-10-19T10:18:42Z</time></trkpt><trkpt lat="51.956363" lon="-2.043508"><ele>101.56</ele><time>2011-10-19T10:18:45Z</time></trkpt><trkpt lat="51.956401" lon="-2.043467"><ele>101.56</ele><time>2011-10-19T10:18:49Z</time></trkpt><trkpt lat="51.956479" lon="-2.043456"><ele>102.52</ele><time>2011-10-19T10:18:57Z</time></trkpt><trkpt lat="51.956558" lon="-2.043441"><ele>103.48</ele><time>2011-10-19T10:19:06Z</time></trkpt><trkpt lat="51.956613" lon="-2.043429"><ele>103.48</ele><time>2011-10-19T10:19:13Z</time></trkpt><trkpt lat="51.956654" lon="-2.043421"><ele>103.96</ele><time>2011-10-19T10:19:20Z</time></trkpt><trkpt lat="51.956735" lon="-2.043432"><ele>103.96</ele><time>2011-10-19T10:19:29Z</time></trkpt><trkpt lat="51.956817" lon="-2.043423"><ele>104.44</ele><time>2011-10-19T10:19:37Z</time></trkpt><trkpt lat="51.956912" lon="-2.043407"><ele>104.92</ele><time>2011-10-19T10:19:46Z</time></trkpt><trkpt lat="51.957026" lon="-2.043379"><ele>105.40</ele><time>2011-10-19T10:19:57Z</time></trkpt><trkpt lat="51.957116" lon="-2.043347"><ele>105.88</ele><time>2011-10-19T10:20:07Z</time></trkpt><trkpt lat="51.957111" lon="-2.043328"><ele>105.40</ele><time>2011-10-19T10:20:16Z</time></trkpt><trkpt lat="51.957176" lon="-2.043316"><ele>105.40</ele><time>2011-10-19T10:20:23Z</time></trkpt><trkpt lat="51.957334" lon="-2.043270"><ele>105.88</ele><time>2011-10-19T10:20:35Z</time></trkpt><trkpt lat="51.957463" lon="-2.043253"><ele>106.84</ele><time>2011-10-19T10:20:46Z</time></trkpt><trkpt lat="51.957567" lon="-2.043218"><ele>107.32</ele><time>2011-10-19T10:20:55Z</time></trkpt><trkpt lat="51.957661" lon="-2.043190"><ele>107.32</ele><time>2011-10-19T10:21:04Z</time></trkpt><trkpt lat="51.957713" lon="-2.043171"><ele>107.81</ele><time>2011-10-19T10:21:12Z</time></trkpt><trkpt lat="51.957840" lon="-2.043139"><ele>106.84</ele><time>2011-10-19T10:21:25Z</time></trkpt><trkpt lat="51.957981" lon="-2.043088"><ele>106.36</ele><time>2011-10-19T10:21:39Z</time></trkpt><trkpt lat="51.958103" lon="-2.043038"><ele>104.92</ele><time>2011-10-19T10:21:52Z</time></trkpt><trkpt lat="51.958224" lon="-2.043003"><ele>104.92</ele><time>2011-10-19T10:22:04Z</time></trkpt><trkpt lat="51.958356" lon="-2.042952"><ele>103.96</ele><time>2011-10-19T10:22:17Z</time></trkpt><trkpt lat="51.958485" lon="-2.042922"><ele>104.44</ele><time>2011-10-19T10:22:29Z</time></trkpt><trkpt lat="51.958579" lon="-2.042926"><ele>105.88</ele><time>2011-10-19T10:22:39Z</time></trkpt><trkpt lat="51.958709" lon="-2.042940"><ele>105.40</ele><time>2011-10-19T10:22:52Z</time></trkpt><trkpt lat="51.958828" lon="-2.042951"><ele>103.48</ele><time>2011-10-19T10:23:04Z</time></trkpt><trkpt lat="51.958948" lon="-2.043014"><ele>103.00</ele><time>2011-10-19T10:23:16Z</time></trkpt><trkpt lat="51.959044" lon="-2.043040"><ele>102.04</ele><time>2011-10-19T10:23:25Z</time></trkpt><trkpt lat="51.959147" lon="-2.043076"><ele>102.52</ele><time>2011-10-19T10:23:34Z</time></trkpt><trkpt lat="51.959232" lon="-2.043047"><ele>102.52</ele><time>2011-10-19T10:23:42Z</time></trkpt><trkpt lat="51.959301" lon="-2.043008"><ele>102.52</ele><time>2011-10-19T10:23:50Z</time></trkpt><trkpt lat="51.959336" lon="-2.042993"><ele>101.08</ele><time>2011-10-19T10:23:56Z</time></trkpt><trkpt lat="51.959346" lon="-2.042990"><ele>101.08</ele><time>2011-10-19T10:24:02Z</time></trkpt><trkpt lat="51.959454" lon="-2.042972"><ele>101.08</ele><time>2011-10-19T10:24:12Z</time></trkpt><trkpt lat="51.959522" lon="-2.042976"><ele>101.56</ele><time>2011-10-19T10:24:19Z</time></trkpt><trkpt lat="51.959566" lon="-2.042963"><ele>101.08</ele><time>2011-10-19T10:24:27Z</time></trkpt><trkpt lat="51.959650" lon="-2.042939"><ele>100.11</ele><time>2011-10-19T10:24:35Z</time></trkpt><trkpt lat="51.959775" lon="-2.042902"><ele>101.56</ele><time>2011-10-19T10:24:47Z</time></trkpt><trkpt lat="51.959848" lon="-2.042865"><ele>102.04</ele><time>2011-10-19T10:24:55Z</time></trkpt><trkpt lat="51.959931" lon="-2.042769"><ele>102.04</ele><time>2011-10-19T10:25:06Z</time></trkpt><trkpt lat="51.960006" lon="-2.042688"><ele>101.56</ele><time>2011-10-19T10:25:15Z</time></trkpt><trkpt lat="51.960009" lon="-2.042677"><ele>100.60</ele><time>2011-10-19T10:25:23Z</time></trkpt><trkpt lat="51.959993" lon="-2.042670"><ele>99.63</ele><time>2011-10-19T10:25:29Z</time></trkpt><trkpt lat="51.960082" lon="-2.042657"><ele>97.23</ele><time>2011-10-19T10:25:39Z</time></trkpt><trkpt lat="51.960108" lon="-2.042658"><ele>97.23</ele><time>2011-10-19T10:25:42Z</time></trkpt><trkpt lat="51.960129" lon="-2.042663"><ele>97.23</ele><time>2011-10-19T10:25:44Z</time></trkpt><trkpt lat="51.960190" lon="-2.042688"><ele>98.19</ele><time>2011-10-19T10:25:49Z</time></trkpt><trkpt lat="51.960334" lon="-2.042721"><ele>97.71</ele><time>2011-10-19T10:26:00Z</time></trkpt><trkpt lat="51.960472" lon="-2.042757"><ele>96.75</ele><time>2011-10-19T10:26:11Z</time></trkpt><trkpt lat="51.960602" lon="-2.042764"><ele>96.27</ele><time>2011-10-19T10:26:22Z</time></trkpt><trkpt lat="51.960731" lon="-2.042720"><ele>96.27</ele><time>2011-10-19T10:26:33Z</time></trkpt><trkpt lat="51.960835" lon="-2.042666"><ele>95.79</ele><time>2011-10-19T10:26:43Z</time></trkpt><trkpt lat="51.960914" lon="-2.042614"><ele>93.87</ele><time>2011-10-19T10:26:52Z</time></trkpt><trkpt lat="51.960994" lon="-2.042604"><ele>92.90</ele><time>2011-10-19T10:27:01Z</time></trkpt><trkpt lat="51.961089" lon="-2.042621"><ele>91.94</ele><time>2011-10-19T10:27:10Z</time></trkpt><trkpt lat="51.961191" lon="-2.042647"><ele>91.94</ele><time>2011-10-19T10:27:20Z</time></trkpt><trkpt lat="51.961263" lon="-2.042667"><ele>91.46</ele><time>2011-10-19T10:27:27Z</time></trkpt><trkpt lat="51.961358" lon="-2.042701"><ele>90.50</ele><time>2011-10-19T10:27:36Z</time></trkpt><trkpt lat="51.961456" lon="-2.042761"><ele>88.10</ele><time>2011-10-19T10:27:48Z</time></trkpt><trkpt lat="51.961454" lon="-2.042763"><ele>87.14</ele><time>2011-10-19T10:28:07Z</time></trkpt><trkpt lat="51.961491" lon="-2.042799"><ele>86.66</ele><time>2011-10-19T10:28:23Z</time></trkpt><trkpt lat="51.961636" lon="-2.042877"><ele>86.18</ele><time>2011-10-19T10:28:35Z</time></trkpt><trkpt lat="51.961760" lon="-2.042924"><ele>84.73</ele><time>2011-10-19T10:28:45Z</time></trkpt><trkpt lat="51.961919" lon="-2.042978"><ele>83.77</ele><time>2011-10-19T10:28:58Z</time></trkpt><trkpt lat="51.962042" lon="-2.043025"><ele>82.33</ele><time>2011-10-19T10:29:08Z</time></trkpt><trkpt lat="51.962071" lon="-2.043041"><ele>81.85</ele><time>2011-10-19T10:29:11Z</time></trkpt><trkpt lat="51.962109" lon="-2.043079"><ele>80.89</ele><time>2011-10-19T10:29:20Z</time></trkpt><trkpt lat="51.962101" lon="-2.043043"><ele>79.45</ele><time>2011-10-19T10:29:28Z</time></trkpt><trkpt lat="51.962117" lon="-2.043031"><ele>79.45</ele><time>2011-10-19T10:29:32Z</time></trkpt><trkpt lat="51.962146" lon="-2.043041"><ele>79.93</ele><time>2011-10-19T10:29:35Z</time></trkpt><trkpt lat="51.962188" lon="-2.043101"><ele>81.37</ele><time>2011-10-19T10:29:44Z</time></trkpt><trkpt lat="51.962186" lon="-2.043104"><ele>81.37</ele><time>2011-10-19T10:29:47Z</time></trkpt><trkpt lat="51.962199" lon="-2.043289"><ele>81.37</ele><time>2011-10-19T10:29:57Z</time></trkpt><trkpt lat="51.962199" lon="-2.043326"><ele>80.89</ele><time>2011-10-19T10:30:05Z</time></trkpt><trkpt lat="51.962198" lon="-2.043325"><ele>80.89</ele><time>2011-10-19T10:30:10Z</time></trkpt><trkpt lat="51.962184" lon="-2.043408"><ele>80.41</ele><time>2011-10-19T10:30:18Z</time></trkpt><trkpt lat="51.962174" lon="-2.043422"><ele>79.45</ele><time>2011-10-19T10:30:40Z</time></trkpt><trkpt lat="51.962172" lon="-2.043462"><ele>78.00</ele><time>2011-10-19T10:30:53Z</time></trkpt><trkpt lat="51.962180" lon="-2.043577"><ele>77.04</ele><time>2011-10-19T10:31:01Z</time></trkpt><trkpt lat="51.962186" lon="-2.043747"><ele>77.04</ele><time>2011-10-19T10:31:11Z</time></trkpt><trkpt lat="51.962181" lon="-2.043951"><ele>77.52</ele><time>2011-10-19T10:31:22Z</time></trkpt><trkpt lat="51.962176" lon="-2.044118"><ele>76.56</ele><time>2011-10-19T10:31:31Z</time></trkpt><trkpt lat="51.962166" lon="-2.044271"><ele>75.12</ele><time>2011-10-19T10:31:39Z</time></trkpt><trkpt lat="51.962153" lon="-2.044431"><ele>73.20</ele><time>2011-10-19T10:31:47Z</time></trkpt><trkpt lat="51.962137" lon="-2.044568"><ele>71.76</ele><time>2011-10-19T10:31:54Z</time></trkpt><trkpt lat="51.962140" lon="-2.044714"><ele>70.79</ele><time>2011-10-19T10:32:02Z</time></trkpt><trkpt lat="51.962126" lon="-2.044815"><ele>70.31</ele><time>2011-10-19T10:32:07Z</time></trkpt><trkpt lat="51.962122" lon="-2.045012"><ele>72.24</ele><time>2011-10-19T10:32:16Z</time></trkpt><trkpt lat="51.962111" lon="-2.045243"><ele>75.12</ele><time>2011-10-19T10:32:27Z</time></trkpt><trkpt lat="51.962107" lon="-2.045505"><ele>75.60</ele><time>2011-10-19T10:32:39Z</time></trkpt><trkpt lat="51.962063" lon="-2.045705"><ele>75.60</ele><time>2011-10-19T10:32:50Z</time></trkpt><trkpt lat="51.962032" lon="-2.045837"><ele>75.12</ele><time>2011-10-19T10:32:57Z</time></trkpt><trkpt lat="51.962000" lon="-2.045977"><ele>74.64</ele><time>2011-10-19T10:33:05Z</time></trkpt><trkpt lat="51.961978" lon="-2.046093"><ele>74.16</ele><time>2011-10-19T10:33:12Z</time></trkpt><trkpt lat="51.961944" lon="-2.046332"><ele>74.16</ele><time>2011-10-19T10:33:25Z</time></trkpt><trkpt lat="51.961910" lon="-2.046484"><ele>73.68</ele><time>2011-10-19T10:33:33Z</time></trkpt><trkpt lat="51.961889" lon="-2.046644"><ele>73.68</ele><time>2011-10-19T10:33:43Z</time></trkpt><trkpt lat="51.961825" lon="-2.046593"><ele>73.68</ele><time>2011-10-19T10:33:51Z</time></trkpt><trkpt lat="51.961787" lon="-2.046587"><ele>73.68</ele><time>2011-10-19T10:33:58Z</time></trkpt><trkpt lat="51.961626" lon="-2.046555"><ele>72.24</ele><time>2011-10-19T10:34:11Z</time></trkpt><trkpt lat="51.961535" lon="-2.046574"><ele>72.72</ele><time>2011-10-19T10:34:19Z</time></trkpt><trkpt lat="51.961488" lon="-2.046612"><ele>74.16</ele><time>2011-10-19T10:34:28Z</time></trkpt><trkpt lat="51.961360" lon="-2.046645"><ele>72.72</ele><time>2011-10-19T10:34:38Z</time></trkpt><trkpt lat="51.961185" lon="-2.046697"><ele>72.72</ele><time>2011-10-19T10:34:53Z</time></trkpt><trkpt lat="51.961180" lon="-2.046706"><ele>71.27</ele><time>2011-10-19T10:35:13Z</time></trkpt><trkpt lat="51.961174" lon="-2.046714"><ele>70.79</ele><time>2011-10-19T10:35:23Z</time></trkpt><trkpt lat="51.961128" lon="-2.046728"><ele>69.83</ele><time>2011-10-19T10:35:41Z</time></trkpt><trkpt lat="51.961029" lon="-2.046768"><ele>71.27</ele><time>2011-10-19T10:35:52Z</time></trkpt><trkpt lat="51.960907" lon="-2.046822"><ele>71.27</ele><time>2011-10-19T10:36:03Z</time></trkpt><trkpt lat="51.960705" lon="-2.046895"><ele>70.79</ele><time>2011-10-19T10:36:20Z</time></trkpt><trkpt lat="51.960509" lon="-2.046969"><ele>70.31</ele><time>2011-10-19T10:36:36Z</time></trkpt><trkpt lat="51.960342" lon="-2.047028"><ele>70.31</ele><time>2011-10-19T10:36:49Z</time></trkpt><trkpt lat="51.960149" lon="-2.047101"><ele>69.83</ele><time>2011-10-19T10:37:05Z</time></trkpt><trkpt lat="51.960023" lon="-2.047137"><ele>70.31</ele><time>2011-10-19T10:37:16Z</time></trkpt><trkpt lat="51.959990" lon="-2.047150"><ele>69.83</ele><time>2011-10-19T10:37:24Z</time></trkpt><trkpt lat="51.959987" lon="-2.047155"><ele>69.83</ele><time>2011-10-19T10:37:26Z</time></trkpt><trkpt lat="51.959892" lon="-2.047187"><ele>69.35</ele><time>2011-10-19T10:37:36Z</time></trkpt><trkpt lat="51.959854" lon="-2.047191"><ele>69.35</ele><time>2011-10-19T10:37:42Z</time></trkpt><trkpt lat="51.959787" lon="-2.047212"><ele>69.35</ele><time>2011-10-19T10:37:50Z</time></trkpt><trkpt lat="51.959698" lon="-2.047246"><ele>69.83</ele><time>2011-10-19T10:37:58Z</time></trkpt><trkpt lat="51.959537" lon="-2.047300"><ele>68.87</ele><time>2011-10-19T10:38:11Z</time></trkpt><trkpt lat="51.959386" lon="-2.047355"><ele>68.39</ele><time>2011-10-19T10:38:23Z</time></trkpt><trkpt lat="51.959266" lon="-2.047401"><ele>67.91</ele><time>2011-10-19T10:38:33Z</time></trkpt><trkpt lat="51.959114" lon="-2.047480"><ele>67.43</ele><time>2011-10-19T10:38:46Z</time></trkpt><trkpt lat="51.958998" lon="-2.047524"><ele>66.95</ele><time>2011-10-19T10:38:56Z</time></trkpt><trkpt lat="51.958837" lon="-2.047587"><ele>66.95</ele><time>2011-10-19T10:39:10Z</time></trkpt><trkpt lat="51.958737" lon="-2.047626"><ele>66.95</ele><time>2011-10-19T10:39:19Z</time></trkpt><trkpt lat="51.958597" lon="-2.047689"><ele>66.47</ele><time>2011-10-19T10:39:31Z</time></trkpt><trkpt lat="51.958456" lon="-2.047761"><ele>66.47</ele><time>2011-10-19T10:39:43Z</time></trkpt><trkpt lat="51.958311" lon="-2.047830"><ele>65.99</ele><time>2011-10-19T10:39:56Z</time></trkpt><trkpt lat="51.958191" lon="-2.047862"><ele>65.99</ele><time>2011-10-19T10:40:07Z</time></trkpt><trkpt lat="51.958137" lon="-2.047877"><ele>65.51</ele><time>2011-10-19T10:40:16Z</time></trkpt><trkpt lat="51.958130" lon="-2.047877"><ele>65.51</ele><time>2011-10-19T10:40:22Z</time></trkpt><trkpt lat="51.958109" lon="-2.047890"><ele>65.51</ele><time>2011-10-19T10:40:28Z</time></trkpt><trkpt lat="51.958099" lon="-2.047893"><ele>65.51</ele><time>2011-10-19T10:40:31Z</time></trkpt><trkpt lat="51.958083" lon="-2.047859"><ele>65.51</ele><time>2011-10-19T10:40:35Z</time></trkpt><trkpt lat="51.958093" lon="-2.047687"><ele>65.99</ele><time>2011-10-19T10:40:46Z</time></trkpt><trkpt lat="51.958083" lon="-2.047545"><ele>66.47</ele><time>2011-10-19T10:40:54Z</time></trkpt><trkpt lat="51.958072" lon="-2.047394"><ele>66.95</ele><time>2011-10-19T10:41:03Z</time></trkpt><trkpt lat="51.958061" lon="-2.047265"><ele>66.95</ele><time>2011-10-19T10:41:11Z</time></trkpt><trkpt lat="51.958038" lon="-2.047124"><ele>66.95</ele><time>2011-10-19T10:41:20Z</time></trkpt><trkpt lat="51.958021" lon="-2.047036"><ele>66.95</ele><time>2011-10-19T10:41:26Z</time></trkpt><trkpt lat="51.957980" lon="-2.046948"><ele>67.91</ele><time>2011-10-19T10:41:34Z</time></trkpt><trkpt lat="51.957932" lon="-2.046938"><ele>68.39</ele><time>2011-10-19T10:41:41Z</time></trkpt><trkpt lat="51.957813" lon="-2.046945"><ele>69.83</ele><time>2011-10-19T10:41:51Z</time></trkpt><trkpt lat="51.957691" lon="-2.046977"><ele>71.27</ele><time>2011-10-19T10:42:02Z</time></trkpt><trkpt lat="51.957570" lon="-2.046988"><ele>71.27</ele><time>2011-10-19T10:42:13Z</time></trkpt><trkpt lat="51.957454" lon="-2.047015"><ele>71.76</ele><time>2011-10-19T10:42:24Z</time></trkpt><trkpt lat="51.957363" lon="-2.047022"><ele>71.76</ele><time>2011-10-19T10:42:33Z</time></trkpt><trkpt lat="51.957262" lon="-2.047045"><ele>71.27</ele><time>2011-10-19T10:42:43Z</time></trkpt><trkpt lat="51.957163" lon="-2.047080"><ele>70.79</ele><time>2011-10-19T10:42:53Z</time></trkpt><trkpt lat="51.957062" lon="-2.047107"><ele>70.79</ele><time>2011-10-19T10:43:04Z</time></trkpt><trkpt lat="51.956962" lon="-2.047136"><ele>70.79</ele><time>2011-10-19T10:43:14Z</time></trkpt><trkpt lat="51.956863" lon="-2.047183"><ele>70.31</ele><time>2011-10-19T10:43:23Z</time></trkpt><trkpt lat="51.956777" lon="-2.047210"><ele>70.31</ele><time>2011-10-19T10:43:32Z</time></trkpt><trkpt lat="51.956688" lon="-2.047236"><ele>70.31</ele><time>2011-10-19T10:43:41Z</time></trkpt><trkpt lat="51.956588" lon="-2.047273"><ele>69.83</ele><time>2011-10-19T10:43:50Z</time></trkpt><trkpt lat="51.956471" lon="-2.047310"><ele>69.83</ele><time>2011-10-19T10:44:02Z</time></trkpt><trkpt lat="51.956383" lon="-2.047343"><ele>69.83</ele><time>2011-10-19T10:44:12Z</time></trkpt><trkpt lat="51.956277" lon="-2.047372"><ele>69.35</ele><time>2011-10-19T10:44:23Z</time></trkpt><trkpt lat="51.956195" lon="-2.047396"><ele>68.87</ele><time>2011-10-19T10:44:31Z</time></trkpt><trkpt lat="51.956098" lon="-2.047432"><ele>69.35</ele><time>2011-10-19T10:44:41Z</time></trkpt><trkpt lat="51.956011" lon="-2.047467"><ele>69.83</ele><time>2011-10-19T10:44:50Z</time></trkpt><trkpt lat="51.955971" lon="-2.047496"><ele>69.83</ele><time>2011-10-19T10:44:58Z</time></trkpt><trkpt lat="51.955943" lon="-2.047498"><ele>70.31</ele><time>2011-10-19T10:45:20Z</time></trkpt><trkpt lat="51.955936" lon="-2.047492"><ele>70.79</ele><time>2011-10-19T10:45:42Z</time></trkpt><trkpt lat="51.955915" lon="-2.047471"><ele>71.76</ele><time>2011-10-19T10:45:55Z</time></trkpt><trkpt lat="51.955908" lon="-2.047468"><ele>71.76</ele><time>2011-10-19T10:45:57Z</time></trkpt><trkpt lat="51.955859" lon="-2.047417"><ele>71.27</ele><time>2011-10-19T10:46:07Z</time></trkpt><trkpt lat="51.955853" lon="-2.047390"><ele>71.76</ele><time>2011-10-19T10:46:16Z</time></trkpt><trkpt lat="51.955846" lon="-2.047370"><ele>71.76</ele><time>2011-10-19T10:46:24Z</time></trkpt><trkpt lat="51.955833" lon="-2.047327"><ele>72.72</ele><time>2011-10-19T10:46:31Z</time></trkpt><trkpt lat="51.955818" lon="-2.047294"><ele>73.20</ele><time>2011-10-19T10:46:38Z</time></trkpt><trkpt lat="51.955817" lon="-2.047275"><ele>72.72</ele><time>2011-10-19T10:46:47Z</time></trkpt><trkpt lat="51.955799" lon="-2.047234"><ele>73.20</ele><time>2011-10-19T10:46:54Z</time></trkpt><trkpt lat="51.955785" lon="-2.047212"><ele>73.20</ele><time>2011-10-19T10:47:16Z</time></trkpt><trkpt lat="51.955775" lon="-2.047225"><ele>72.72</ele><time>2011-10-19T10:47:29Z</time></trkpt><trkpt lat="51.955777" lon="-2.047225"><ele>72.72</ele><time>2011-10-19T10:47:51Z</time></trkpt><trkpt lat="51.955776" lon="-2.047239"><ele>73.20</ele><time>2011-10-19T10:48:01Z</time></trkpt><trkpt lat="51.955788" lon="-2.047247"><ele>73.20</ele><time>2011-10-19T10:48:08Z</time></trkpt><trkpt lat="51.955794" lon="-2.047241"><ele>73.20</ele><time>2011-10-19T10:48:23Z</time></trkpt><trkpt lat="51.955793" lon="-2.047247"><ele>73.20</ele><time>2011-10-19T10:48:31Z</time></trkpt><trkpt lat="51.955759" lon="-2.047210"><ele>72.72</ele><time>2011-10-19T10:48:38Z</time></trkpt><trkpt lat="51.955743" lon="-2.047207"><ele>71.76</ele><time>2011-10-19T10:48:45Z</time></trkpt><trkpt lat="51.955725" lon="-2.047202"><ele>70.79</ele><time>2011-10-19T10:48:52Z</time></trkpt><trkpt lat="51.955711" lon="-2.047232"><ele>69.83</ele><time>2011-10-19T10:48:59Z</time></trkpt><trkpt lat="51.955710" lon="-2.047233"><ele>69.35</ele><time>2011-10-19T10:49:13Z</time></trkpt><trkpt lat="51.955707" lon="-2.047250"><ele>68.87</ele><time>2011-10-19T10:49:23Z</time></trkpt><trkpt lat="51.955702" lon="-2.047239"><ele>69.83</ele><time>2011-10-19T10:49:30Z</time></trkpt><trkpt lat="51.955700" lon="-2.047242"><ele>70.31</ele><time>2011-10-19T10:49:44Z</time></trkpt><trkpt lat="51.955676" lon="-2.047232"><ele>70.31</ele><time>2011-10-19T10:50:32Z</time></trkpt><trkpt lat="51.955659" lon="-2.047228"><ele>70.79</ele><time>2011-10-19T10:50:40Z</time></trkpt><trkpt lat="51.955645" lon="-2.047223"><ele>71.27</ele><time>2011-10-19T10:50:47Z</time></trkpt><trkpt lat="51.955661" lon="-2.047232"><ele>72.72</ele><time>2011-10-19T10:51:09Z</time></trkpt><trkpt lat="51.955688" lon="-2.047246"><ele>72.72</ele><time>2011-10-19T10:51:24Z</time></trkpt><trkpt lat="51.955725" lon="-2.047216"><ele>72.72</ele><time>2011-10-19T10:51:33Z</time></trkpt><trkpt lat="51.955722" lon="-2.047156"><ele>74.16</ele><time>2011-10-19T10:52:05Z</time></trkpt><trkpt lat="51.955721" lon="-2.047145"><ele>73.68</ele><time>2011-10-19T10:52:19Z</time></trkpt><trkpt lat="51.955721" lon="-2.047131"><ele>73.20</ele><time>2011-10-19T10:52:30Z</time></trkpt><trkpt lat="51.955718" lon="-2.047117"><ele>72.72</ele><time>2011-10-19T10:52:44Z</time></trkpt><trkpt lat="51.955720" lon="-2.047103"><ele>72.72</ele><time>2011-10-19T10:52:59Z</time></trkpt><trkpt lat="51.955723" lon="-2.047090"><ele>73.20</ele><time>2011-10-19T10:53:07Z</time></trkpt><trkpt lat="51.955725" lon="-2.047088"><ele>73.20</ele><time>2011-10-19T10:53:09Z</time></trkpt><trkpt lat="51.955686" lon="-2.047060"><ele>72.72</ele><time>2011-10-19T10:53:14Z</time></trkpt><trkpt lat="51.955577" lon="-2.047052"><ele>72.72</ele><time>2011-10-19T10:53:23Z</time></trkpt><trkpt lat="51.955449" lon="-2.047040"><ele>73.20</ele><time>2011-10-19T10:53:34Z</time></trkpt><trkpt lat="51.955309" lon="-2.047035"><ele>73.20</ele><time>2011-10-19T10:53:45Z</time></trkpt><trkpt lat="51.955179" lon="-2.047012"><ele>73.68</ele><time>2011-10-19T10:53:56Z</time></trkpt><trkpt lat="51.955081" lon="-2.046974"><ele>74.16</ele><time>2011-10-19T10:54:05Z</time></trkpt><trkpt lat="51.954988" lon="-2.046915"><ele>75.12</ele><time>2011-10-19T10:54:14Z</time></trkpt><trkpt lat="51.954929" lon="-2.046879"><ele>75.60</ele><time>2011-10-19T10:54:19Z</time></trkpt><trkpt lat="51.954846" lon="-2.046866"><ele>76.08</ele><time>2011-10-19T10:54:26Z</time></trkpt><trkpt lat="51.954750" lon="-2.046852"><ele>76.08</ele><time>2011-10-19T10:54:35Z</time></trkpt><trkpt lat="51.954719" lon="-2.046848"><ele>75.60</ele><time>2011-10-19T10:54:40Z</time></trkpt><trkpt lat="51.954618" lon="-2.046767"><ele>76.56</ele><time>2011-10-19T10:54:52Z</time></trkpt><trkpt lat="51.954540" lon="-2.046753"><ele>77.04</ele><time>2011-10-19T10:55:00Z</time></trkpt><trkpt lat="51.954501" lon="-2.046742"><ele>77.04</ele><time>2011-10-19T10:55:09Z</time></trkpt><trkpt lat="51.954503" lon="-2.046764"><ele>78.00</ele><time>2011-10-19T10:55:37Z</time></trkpt><trkpt lat="51.954502" lon="-2.046766"><ele>78.48</ele><time>2011-10-19T10:55:48Z</time></trkpt><trkpt lat="51.954494" lon="-2.046768"><ele>78.48</ele><time>2011-10-19T10:55:53Z</time></trkpt><trkpt lat="51.954498" lon="-2.046778"><ele>78.97</ele><time>2011-10-19T10:56:03Z</time></trkpt><trkpt lat="51.954489" lon="-2.046753"><ele>78.97</ele><time>2011-10-19T10:56:27Z</time></trkpt><trkpt lat="51.954462" lon="-2.046733"><ele>78.97</ele><time>2011-10-19T10:56:33Z</time></trkpt><trkpt lat="51.954435" lon="-2.046724"><ele>79.93</ele><time>2011-10-19T10:56:38Z</time></trkpt><trkpt lat="51.954367" lon="-2.046720"><ele>79.45</ele><time>2011-10-19T10:56:45Z</time></trkpt><trkpt lat="51.954294" lon="-2.046652"><ele>79.93</ele><time>2011-10-19T10:56:54Z</time></trkpt><trkpt lat="51.954245" lon="-2.046613"><ele>79.45</ele><time>2011-10-19T10:57:00Z</time></trkpt><trkpt lat="51.954182" lon="-2.046592"><ele>80.41</ele><time>2011-10-19T10:57:07Z</time></trkpt><trkpt lat="51.954099" lon="-2.046575"><ele>80.89</ele><time>2011-10-19T10:57:15Z</time></trkpt><trkpt lat="51.954041" lon="-2.046541"><ele>80.89</ele><time>2011-10-19T10:57:20Z</time></trkpt><trkpt lat="51.953964" lon="-2.046503"><ele>80.89</ele><time>2011-10-19T10:57:29Z</time></trkpt><trkpt lat="51.953939" lon="-2.046503"><ele>80.41</ele><time>2011-10-19T10:57:52Z</time></trkpt><trkpt lat="51.953921" lon="-2.046506"><ele>79.45</ele><time>2011-10-19T10:58:03Z</time></trkpt><trkpt lat="51.953844" lon="-2.046428"><ele>78.97</ele><time>2011-10-19T10:58:14Z</time></trkpt><trkpt lat="51.953753" lon="-2.046358"><ele>78.48</ele><time>2011-10-19T10:58:23Z</time></trkpt><trkpt lat="51.953657" lon="-2.046300"><ele>78.97</ele><time>2011-10-19T10:58:33Z</time></trkpt><trkpt lat="51.953561" lon="-2.046238"><ele>79.45</ele><time>2011-10-19T10:58:43Z</time></trkpt><trkpt lat="51.953451" lon="-2.046165"><ele>78.97</ele><time>2011-10-19T10:58:53Z</time></trkpt><trkpt lat="51.953337" lon="-2.046071"><ele>79.93</ele><time>2011-10-19T10:59:04Z</time></trkpt><trkpt lat="51.953269" lon="-2.046037"><ele>78.48</ele><time>2011-10-19T10:59:11Z</time></trkpt><trkpt lat="51.953246" lon="-2.046054"><ele>78.48</ele><time>2011-10-19T10:59:17Z</time></trkpt><trkpt lat="51.953241" lon="-2.046064"><ele>78.00</ele><time>2011-10-19T10:59:31Z</time></trkpt><trkpt lat="51.953238" lon="-2.046064"><ele>78.48</ele><time>2011-10-19T10:59:42Z</time></trkpt><trkpt lat="51.953233" lon="-2.046078"><ele>78.48</ele><time>2011-10-19T11:00:03Z</time></trkpt><trkpt lat="51.953229" lon="-2.046074"><ele>79.45</ele><time>2011-10-19T11:00:17Z</time></trkpt><trkpt lat="51.953220" lon="-2.046078"><ele>78.97</ele><time>2011-10-19T11:00:31Z</time></trkpt><trkpt lat="51.953189" lon="-2.046098"><ele>78.97</ele><time>2011-10-19T11:00:35Z</time></trkpt><trkpt lat="51.953063" lon="-2.046038"><ele>78.48</ele><time>2011-10-19T11:00:45Z</time></trkpt><trkpt lat="51.952927" lon="-2.045912"><ele>79.93</ele><time>2011-10-19T11:00:58Z</time></trkpt><trkpt lat="51.952781" lon="-2.045769"><ele>81.37</ele><time>2011-10-19T11:01:13Z</time></trkpt><trkpt lat="51.952677" lon="-2.045690"><ele>81.85</ele><time>2011-10-19T11:01:24Z</time></trkpt><trkpt lat="51.952640" lon="-2.045672"><ele>81.85</ele><time>2011-10-19T11:01:29Z</time></trkpt><trkpt lat="51.952506" lon="-2.045563"><ele>81.37</ele><time>2011-10-19T11:01:41Z</time></trkpt><trkpt lat="51.952377" lon="-2.045466"><ele>80.89</ele><time>2011-10-19T11:01:55Z</time></trkpt><trkpt lat="51.952352" lon="-2.045440"><ele>80.89</ele><time>2011-10-19T11:02:01Z</time></trkpt><trkpt lat="51.952185" lon="-2.045322"><ele>80.41</ele><time>2011-10-19T11:02:15Z</time></trkpt><trkpt lat="51.952097" lon="-2.045279"><ele>80.89</ele><time>2011-10-19T11:02:22Z</time></trkpt><trkpt lat="51.952018" lon="-2.045232"><ele>80.41</ele><time>2011-10-19T11:02:29Z</time></trkpt><trkpt lat="51.951885" lon="-2.045167"><ele>80.41</ele><time>2011-10-19T11:02:40Z</time></trkpt><trkpt lat="51.951859" lon="-2.045148"><ele>80.89</ele><time>2011-10-19T11:02:42Z</time></trkpt><trkpt lat="51.951801" lon="-2.045120"><ele>80.89</ele><time>2011-10-19T11:02:47Z</time></trkpt><trkpt lat="51.951740" lon="-2.045046"><ele>80.41</ele><time>2011-10-19T11:02:53Z</time></trkpt><trkpt lat="51.951710" lon="-2.044880"><ele>80.89</ele><time>2011-10-19T11:03:03Z</time></trkpt><trkpt lat="51.951725" lon="-2.044751"><ele>80.89</ele><time>2011-10-19T11:03:12Z</time></trkpt><trkpt lat="51.951726" lon="-2.044643"><ele>82.33</ele><time>2011-10-19T11:03:21Z</time></trkpt><trkpt lat="51.951711" lon="-2.044554"><ele>85.69</ele><time>2011-10-19T11:03:28Z</time></trkpt><trkpt lat="51.951712" lon="-2.044534"><ele>86.18</ele><time>2011-10-19T11:03:40Z</time></trkpt><trkpt lat="51.951714" lon="-2.044527"><ele>86.66</ele><time>2011-10-19T11:03:46Z</time></trkpt><trkpt lat="51.951650" lon="-2.044489"><ele>90.98</ele><time>2011-10-19T11:03:54Z</time></trkpt><trkpt lat="51.951565" lon="-2.044456"><ele>94.83</ele><time>2011-10-19T11:04:02Z</time></trkpt><trkpt lat="51.951473" lon="-2.044432"><ele>96.75</ele><time>2011-10-19T11:04:10Z</time></trkpt><trkpt lat="51.951381" lon="-2.044385"><ele>95.31</ele><time>2011-10-19T11:04:17Z</time></trkpt><trkpt lat="51.951319" lon="-2.044344"><ele>95.31</ele><time>2011-10-19T11:04:24Z</time></trkpt><trkpt lat="51.951227" lon="-2.044304"><ele>94.35</ele><time>2011-10-19T11:04:33Z</time></trkpt><trkpt lat="51.951149" lon="-2.044245"><ele>93.87</ele><time>2011-10-19T11:04:42Z</time></trkpt><trkpt lat="51.951073" lon="-2.044213"><ele>95.31</ele><time>2011-10-19T11:04:51Z</time></trkpt><trkpt lat="51.950987" lon="-2.044194"><ele>97.23</ele><time>2011-10-19T11:05:01Z</time></trkpt><trkpt lat="51.950917" lon="-2.044164"><ele>97.23</ele><time>2011-10-19T11:05:08Z</time></trkpt><trkpt lat="51.950816" lon="-2.044127"><ele>95.31</ele><time>2011-10-19T11:05:17Z</time></trkpt><trkpt lat="51.950749" lon="-2.044102"><ele>93.87</ele><time>2011-10-19T11:05:25Z</time></trkpt><trkpt lat="51.950689" lon="-2.044085"><ele>93.39</ele><time>2011-10-19T11:05:33Z</time></trkpt><trkpt lat="51.950635" lon="-2.044037"><ele>91.94</ele><time>2011-10-19T11:05:41Z</time></trkpt><trkpt lat="51.950612" lon="-2.044016"><ele>91.46</ele><time>2011-10-19T11:05:50Z</time></trkpt><trkpt lat="51.950601" lon="-2.044007"><ele>91.46</ele><time>2011-10-19T11:05:53Z</time></trkpt><trkpt lat="51.950532" lon="-2.043968"><ele>91.94</ele><time>2011-10-19T11:06:01Z</time></trkpt><trkpt lat="51.950430" lon="-2.043957"><ele>90.02</ele><time>2011-10-19T11:06:10Z</time></trkpt><trkpt lat="51.950343" lon="-2.043963"><ele>89.54</ele><time>2011-10-19T11:06:18Z</time></trkpt><trkpt lat="51.950234" lon="-2.043925"><ele>87.62</ele><time>2011-10-19T11:06:28Z</time></trkpt><trkpt lat="51.950206" lon="-2.043899"><ele>86.66</ele><time>2011-10-19T11:06:35Z</time></trkpt><trkpt lat="51.950172" lon="-2.043882"><ele>85.69</ele><time>2011-10-19T11:06:45Z</time></trkpt><trkpt lat="51.950093" lon="-2.043862"><ele>84.73</ele><time>2011-10-19T11:06:53Z</time></trkpt><trkpt lat="51.950019" lon="-2.043830"><ele>85.69</ele><time>2011-10-19T11:07:02Z</time></trkpt><trkpt lat="51.949993" lon="-2.043822"><ele>85.69</ele><time>2011-10-19T11:07:14Z</time></trkpt><trkpt lat="51.949924" lon="-2.043790"><ele>86.66</ele><time>2011-10-19T11:07:22Z</time></trkpt><trkpt lat="51.949848" lon="-2.043755"><ele>86.66</ele><time>2011-10-19T11:07:31Z</time></trkpt><trkpt lat="51.949840" lon="-2.043747"><ele>86.66</ele><time>2011-10-19T11:07:32Z</time></trkpt><trkpt lat="51.949763" lon="-2.043690"><ele>86.18</ele><time>2011-10-19T11:07:40Z</time></trkpt><trkpt lat="51.949701" lon="-2.043650"><ele>86.18</ele><time>2011-10-19T11:07:46Z</time></trkpt><trkpt lat="51.949614" lon="-2.043586"><ele>85.21</ele><time>2011-10-19T11:07:54Z</time></trkpt><trkpt lat="51.949516" lon="-2.043505"><ele>85.21</ele><time>2011-10-19T11:08:03Z</time></trkpt><trkpt lat="51.949450" lon="-2.043455"><ele>85.21</ele><time>2011-10-19T11:08:10Z</time></trkpt><trkpt lat="51.949385" lon="-2.043417"><ele>83.77</ele><time>2011-10-19T11:08:16Z</time></trkpt><trkpt lat="51.949292" lon="-2.043348"><ele>81.85</ele><time>2011-10-19T11:08:25Z</time></trkpt><trkpt lat="51.949227" lon="-2.043304"><ele>80.41</ele><time>2011-10-19T11:08:32Z</time></trkpt><trkpt lat="51.949153" lon="-2.043241"><ele>78.97</ele><time>2011-10-19T11:08:40Z</time></trkpt><trkpt lat="51.949061" lon="-2.043173"><ele>78.00</ele><time>2011-10-19T11:08:49Z</time></trkpt><trkpt lat="51.948964" lon="-2.043130"><ele>78.97</ele><time>2011-10-19T11:08:59Z</time></trkpt><trkpt lat="51.948848" lon="-2.043092"><ele>78.97</ele><time>2011-10-19T11:09:10Z</time></trkpt><trkpt lat="51.948727" lon="-2.043037"><ele>78.97</ele><time>2011-10-19T11:09:21Z</time></trkpt><trkpt lat="51.948629" lon="-2.042999"><ele>78.48</ele><time>2011-10-19T11:09:30Z</time></trkpt><trkpt lat="51.948581" lon="-2.042973"><ele>77.52</ele><time>2011-10-19T11:09:37Z</time></trkpt><trkpt lat="51.948567" lon="-2.042974"><ele>77.52</ele><time>2011-10-19T11:09:42Z</time></trkpt><trkpt lat="51.948497" lon="-2.042962"><ele>75.60</ele><time>2011-10-19T11:09:50Z</time></trkpt><trkpt lat="51.948438" lon="-2.042938"><ele>73.20</ele><time>2011-10-19T11:09:56Z</time></trkpt><trkpt lat="51.948350" lon="-2.042912"><ele>72.72</ele><time>2011-10-19T11:10:04Z</time></trkpt><trkpt lat="51.948254" lon="-2.042905"><ele>72.24</ele><time>2011-10-19T11:10:13Z</time></trkpt><trkpt lat="51.948150" lon="-2.042882"><ele>75.12</ele><time>2011-10-19T11:10:23Z</time></trkpt><trkpt lat="51.948062" lon="-2.042866"><ele>76.56</ele><time>2011-10-19T11:10:32Z</time></trkpt><trkpt lat="51.948001" lon="-2.042866"><ele>77.04</ele><time>2011-10-19T11:10:39Z</time></trkpt><trkpt lat="51.947994" lon="-2.042842"><ele>77.04</ele><time>2011-10-19T11:10:45Z</time></trkpt><trkpt lat="51.947989" lon="-2.042841"><ele>77.04</ele><time>2011-10-19T11:10:51Z</time></trkpt><trkpt lat="51.947903" lon="-2.042873"><ele>77.52</ele><time>2011-10-19T11:11:00Z</time></trkpt><trkpt lat="51.947807" lon="-2.042845"><ele>78.48</ele><time>2011-10-19T11:11:09Z</time></trkpt><trkpt lat="51.947755" lon="-2.042838"><ele>78.00</ele><time>2011-10-19T11:11:15Z</time></trkpt><trkpt lat="51.947684" lon="-2.042826"><ele>78.00</ele><time>2011-10-19T11:11:23Z</time></trkpt><trkpt lat="51.947610" lon="-2.042802"><ele>78.00</ele><time>2011-10-19T11:11:31Z</time></trkpt><trkpt lat="51.947572" lon="-2.042782"><ele>78.00</ele><time>2011-10-19T11:11:41Z</time></trkpt><trkpt lat="51.947502" lon="-2.042757"><ele>77.52</ele><time>2011-10-19T11:11:49Z</time></trkpt><trkpt lat="51.947457" lon="-2.042742"><ele>77.52</ele><time>2011-10-19T11:11:55Z</time></trkpt><trkpt lat="51.947431" lon="-2.042740"><ele>77.52</ele><time>2011-10-19T11:12:01Z</time></trkpt><trkpt lat="51.947412" lon="-2.042737"><ele>77.04</ele><time>2011-10-19T11:12:08Z</time></trkpt><trkpt lat="51.947379" lon="-2.042730"><ele>76.56</ele><time>2011-10-19T11:12:15Z</time></trkpt><trkpt lat="51.947356" lon="-2.042729"><ele>76.56</ele><time>2011-10-19T11:12:21Z</time></trkpt><trkpt lat="51.947306" lon="-2.042713"><ele>77.52</ele><time>2011-10-19T11:12:27Z</time></trkpt><trkpt lat="51.947216" lon="-2.042690"><ele>77.52</ele><time>2011-10-19T11:12:36Z</time></trkpt><trkpt lat="51.947086" lon="-2.042682"><ele>77.52</ele><time>2011-10-19T11:12:46Z</time></trkpt><trkpt lat="51.946996" lon="-2.042672"><ele>76.56</ele><time>2011-10-19T11:12:54Z</time></trkpt><trkpt lat="51.946896" lon="-2.042638"><ele>76.56</ele><time>2011-10-19T11:13:04Z</time></trkpt><trkpt lat="51.946816" lon="-2.042584"><ele>74.64</ele><time>2011-10-19T11:13:13Z</time></trkpt><trkpt lat="51.946766" lon="-2.042533"><ele>73.68</ele><time>2011-10-19T11:13:20Z</time></trkpt><trkpt lat="51.946734" lon="-2.042461"><ele>72.72</ele><time>2011-10-19T11:13:28Z</time></trkpt><trkpt lat="51.946735" lon="-2.042421"><ele>73.20</ele><time>2011-10-19T11:13:32Z</time></trkpt><trkpt lat="51.946729" lon="-2.042316"><ele>74.16</ele><time>2011-10-19T11:13:40Z</time></trkpt><trkpt lat="51.946712" lon="-2.042223"><ele>74.64</ele><time>2011-10-19T11:13:46Z</time></trkpt><trkpt lat="51.946688" lon="-2.042136"><ele>76.08</ele><time>2011-10-19T11:13:53Z</time></trkpt><trkpt lat="51.946662" lon="-2.042019"><ele>78.97</ele><time>2011-10-19T11:14:01Z</time></trkpt><trkpt lat="51.946641" lon="-2.041945"><ele>80.41</ele><time>2011-10-19T11:14:09Z</time></trkpt><trkpt lat="51.946619" lon="-2.041871"><ele>80.89</ele><time>2011-10-19T11:14:16Z</time></trkpt><trkpt lat="51.946581" lon="-2.041781"><ele>82.33</ele><time>2011-10-19T11:14:23Z</time></trkpt><trkpt lat="51.946564" lon="-2.041738"><ele>82.33</ele><time>2011-10-19T11:14:29Z</time></trkpt><trkpt lat="51.946522" lon="-2.041614"><ele>82.81</ele><time>2011-10-19T11:14:39Z</time></trkpt><trkpt lat="51.946479" lon="-2.041518"><ele>83.29</ele><time>2011-10-19T11:14:46Z</time></trkpt><trkpt lat="51.946442" lon="-2.041426"><ele>84.73</ele><time>2011-10-19T11:14:53Z</time></trkpt><trkpt lat="51.946415" lon="-2.041308"><ele>85.21</ele><time>2011-10-19T11:15:02Z</time></trkpt><trkpt lat="51.946394" lon="-2.041186"><ele>85.21</ele><time>2011-10-19T11:15:10Z</time></trkpt><trkpt lat="51.946383" lon="-2.041134"><ele>85.21</ele><time>2011-10-19T11:15:18Z</time></trkpt><trkpt lat="51.946383" lon="-2.041130"><ele>85.21</ele><time>2011-10-19T11:15:20Z</time></trkpt><trkpt lat="51.946367" lon="-2.040959"><ele>85.21</ele><time>2011-10-19T11:15:31Z</time></trkpt><trkpt lat="51.946366" lon="-2.040945"><ele>85.21</ele><time>2011-10-19T11:15:32Z</time></trkpt><trkpt lat="51.946355" lon="-2.040793"><ele>85.21</ele><time>2011-10-19T11:15:42Z</time></trkpt><trkpt lat="51.946333" lon="-2.040677"><ele>86.66</ele><time>2011-10-19T11:15:50Z</time></trkpt><trkpt lat="51.946326" lon="-2.040652"><ele>86.66</ele><time>2011-10-19T11:15:58Z</time></trkpt><trkpt lat="51.946321" lon="-2.040642"><ele>87.14</ele><time>2011-10-19T11:16:06Z</time></trkpt><trkpt lat="51.946315" lon="-2.040601"><ele>87.14</ele><time>2011-10-19T11:16:12Z</time></trkpt><trkpt lat="51.946292" lon="-2.040597"><ele>87.14</ele><time>2011-10-19T11:16:20Z</time></trkpt><trkpt lat="51.946267" lon="-2.040596"><ele>87.14</ele><time>2011-10-19T11:16:23Z</time></trkpt><trkpt lat="51.946183" lon="-2.040602"><ele>86.66</ele><time>2011-10-19T11:16:31Z</time></trkpt><trkpt lat="51.946136" lon="-2.040536"><ele>88.58</ele><time>2011-10-19T11:16:41Z</time></trkpt><trkpt lat="51.946116" lon="-2.040506"><ele>89.06</ele><time>2011-10-19T11:16:45Z</time></trkpt><trkpt lat="51.946072" lon="-2.040405"><ele>89.54</ele><time>2011-10-19T11:16:54Z</time></trkpt><trkpt lat="51.946043" lon="-2.040338"><ele>90.98</ele><time>2011-10-19T11:17:01Z</time></trkpt><trkpt lat="51.945996" lon="-2.040237"><ele>91.46</ele><time>2011-10-19T11:17:09Z</time></trkpt><trkpt lat="51.945947" lon="-2.040133"><ele>92.42</ele><time>2011-10-19T11:17:18Z</time></trkpt><trkpt lat="51.945907" lon="-2.040056"><ele>95.31</ele><time>2011-10-19T11:17:27Z</time></trkpt><trkpt lat="51.945881" lon="-2.039989"><ele>96.27</ele><time>2011-10-19T11:17:33Z</time></trkpt><trkpt lat="51.945831" lon="-2.039881"><ele>97.23</ele><time>2011-10-19T11:17:41Z</time></trkpt><trkpt lat="51.945779" lon="-2.039791"><ele>96.27</ele><time>2011-10-19T11:17:49Z</time></trkpt><trkpt lat="51.945723" lon="-2.039689"><ele>95.79</ele><time>2011-10-19T11:17:58Z</time></trkpt><trkpt lat="51.945664" lon="-2.039593"><ele>95.31</ele><time>2011-10-19T11:18:07Z</time></trkpt><trkpt lat="51.945627" lon="-2.039520"><ele>96.27</ele><time>2011-10-19T11:18:14Z</time></trkpt><trkpt lat="51.945618" lon="-2.039528"><ele>94.35</ele><time>2011-10-19T11:18:25Z</time></trkpt><trkpt lat="51.945608" lon="-2.039510"><ele>93.87</ele><time>2011-10-19T11:18:33Z</time></trkpt><trkpt lat="51.945593" lon="-2.039483"><ele>92.90</ele><time>2011-10-19T11:18:42Z</time></trkpt><trkpt lat="51.945571" lon="-2.039449"><ele>91.94</ele><time>2011-10-19T11:18:52Z</time></trkpt><trkpt lat="51.945559" lon="-2.039420"><ele>91.94</ele><time>2011-10-19T11:18:58Z</time></trkpt><trkpt lat="51.945521" lon="-2.039344"><ele>91.94</ele><time>2011-10-19T11:19:03Z</time></trkpt><trkpt lat="51.945457" lon="-2.039230"><ele>92.42</ele><time>2011-10-19T11:19:12Z</time></trkpt><trkpt lat="51.945411" lon="-2.039131"><ele>91.94</ele><time>2011-10-19T11:19:20Z</time></trkpt><trkpt lat="51.945372" lon="-2.039047"><ele>92.90</ele><time>2011-10-19T11:19:27Z</time></trkpt><trkpt lat="51.945323" lon="-2.038958"><ele>92.90</ele><time>2011-10-19T11:19:34Z</time></trkpt><trkpt lat="51.945260" lon="-2.038844"><ele>92.90</ele><time>2011-10-19T11:19:43Z</time></trkpt><trkpt lat="51.945197" lon="-2.038743"><ele>92.42</ele><time>2011-10-19T11:19:52Z</time></trkpt><trkpt lat="51.945155" lon="-2.038641"><ele>93.39</ele><time>2011-10-19T11:20:00Z</time></trkpt><trkpt lat="51.945120" lon="-2.038556"><ele>92.90</ele><time>2011-10-19T11:20:07Z</time></trkpt><trkpt lat="51.945102" lon="-2.038518"><ele>92.90</ele><time>2011-10-19T11:20:10Z</time></trkpt><trkpt lat="51.945071" lon="-2.038414"><ele>92.90</ele><time>2011-10-19T11:20:18Z</time></trkpt><trkpt lat="51.945016" lon="-2.038314"><ele>92.90</ele><time>2011-10-19T11:20:27Z</time></trkpt><trkpt lat="51.944987" lon="-2.038255"><ele>92.42</ele><time>2011-10-19T11:20:34Z</time></trkpt><trkpt lat="51.944980" lon="-2.038244"><ele>91.94</ele><time>2011-10-19T11:20:46Z</time></trkpt><trkpt lat="51.944914" lon="-2.038192"><ele>90.50</ele><time>2011-10-19T11:20:56Z</time></trkpt><trkpt lat="51.944852" lon="-2.038101"><ele>90.02</ele><time>2011-10-19T11:21:04Z</time></trkpt><trkpt lat="51.944819" lon="-2.038119"><ele>90.50</ele><time>2011-10-19T11:21:10Z</time></trkpt></trkseg></trk></gpx>